<?xml version="1.0" encoding="UTF-8" standalone="no" ?>
<gpx xmlns="http://www.topografix.com/GPX/1/1" xmlns:xsi="http://www.w3.org/2001/XMLSchema-instance" xsi:schemaLocation="http://www.topografix.com/GPX/1/1 http://www.topografix.com/GPX/1/1/gpx.xsd" version="1.1" creator="VisuGPX - https://www.visugpx.com">
  <metadata>
    <name>40 - Aydat</name>
  </metadata>
  <trk>
    <name><![CDATA[40 - Aydat]]></name>
    <extensions>
      <line xmlns="http://www.topografix.com/GPX/gpx_style/0/2">
        <color>0000FF</color>
        <width>4</width>
          <extensions>
            <sens>1</sens>
          </extensions>
      </line>
    </extensions>
    <trkseg>
      <trkpt lat="45.75023" lon="3.08556">
        <ele>431.575323</ele>
        <time>2022-08-21T10:14:19.339Z</time>
      </trkpt>
      <trkpt lat="45.75023" lon="3.08555">
        <ele>431.575323</ele>
        <time>2022-08-21T10:14:19.582Z</time>
      </trkpt>
      <trkpt lat="45.75016" lon="3.08549">
        <ele>431.575323</ele>
        <time>2022-08-21T10:14:20.776Z</time>
      </trkpt>
      <trkpt lat="45.75006" lon="3.08547">
        <ele>431.575323</ele>
        <time>2022-08-21T10:14:22.196Z</time>
      </trkpt>
      <trkpt lat="45.74979" lon="3.08551">
        <ele>431.575323</ele>
        <time>2022-08-21T10:14:25.985Z</time>
      </trkpt>
      <trkpt lat="45.74969" lon="3.08518">
        <ele>431.575323</ele>
        <time>2022-08-21T10:14:29.551Z</time>
      </trkpt>
      <trkpt lat="45.74954" lon="3.08523">
        <ele>431.575323</ele>
        <time>2022-08-21T10:14:31.656Z</time>
      </trkpt>
      <trkpt lat="45.7493" lon="3.08497">
        <ele>430.323466</ele>
        <time>2022-08-21T10:14:35.897Z</time>
      </trkpt>
      <trkpt lat="45.74917" lon="3.08498">
        <ele>429.729986</ele>
        <time>2022-08-21T10:14:37.611Z</time>
      </trkpt>
      <trkpt lat="45.74896" lon="3.08507">
        <ele>428.683249</ele>
        <time>2022-08-21T10:14:40.677Z</time>
      </trkpt>
      <trkpt lat="45.74884" lon="3.08513">
        <ele>428.085646</ele>
        <time>2022-08-21T10:14:42.371Z</time>
      </trkpt>
      <trkpt lat="45.74861" lon="3.08537">
        <ele>426.727854</ele>
        <time>2022-08-21T10:14:46.274Z</time>
      </trkpt>
      <trkpt lat="45.74856" lon="3.08644">
        <ele>423.180187</ele>
        <time>2022-08-21T10:14:56.757Z</time>
      </trkpt>
      <trkpt lat="45.74857" lon="3.08677">
        <ele>422.933601</ele>
        <time>2022-08-21T10:15:00.292Z</time>
      </trkpt>
      <trkpt lat="45.74863" lon="3.0871">
        <ele>422.799071</ele>
        <time>2022-08-21T10:15:03.911Z</time>
      </trkpt>
      <trkpt lat="45.74867" lon="3.08732">
        <ele>422.705547</ele>
        <time>2022-08-21T10:15:06.729Z</time>
      </trkpt>
      <trkpt lat="45.74861" lon="3.08739">
        <ele>422.661569</ele>
        <time>2022-08-21T10:15:08.152Z</time>
      </trkpt>
      <trkpt lat="45.74861" lon="3.08744">
        <ele>422.640179</ele>
        <time>2022-08-21T10:15:08.827Z</time>
      </trkpt>
      <trkpt lat="45.74862" lon="3.08749">
        <ele>422.618902</ele>
        <time>2022-08-21T10:15:09.490Z</time>
      </trkpt>
      <trkpt lat="45.74862" lon="3.08756">
        <ele>422.59104</ele>
        <time>2022-08-21T10:15:10.362Z</time>
      </trkpt>
      <trkpt lat="45.7485" lon="3.0874">
        <ele>422.497744</ele>
        <time>2022-08-21T10:15:15.613Z</time>
      </trkpt>
      <trkpt lat="45.74798" lon="3.08733">
        <ele>422.195239</ele>
        <time>2022-08-21T10:15:32.788Z</time>
      </trkpt>
      <trkpt lat="45.74677" lon="3.08709">
        <ele>423.258767</ele>
        <time>2022-08-21T10:16:19.308Z</time>
      </trkpt>
      <trkpt lat="45.74677" lon="3.08704">
        <ele>423.308701</ele>
        <time>2022-08-21T10:16:20.803Z</time>
      </trkpt>
      <trkpt lat="45.74664" lon="3.08706">
        <ele>423.484438</ele>
        <time>2022-08-21T10:16:24.052Z</time>
      </trkpt>
      <trkpt lat="45.74658" lon="3.08709">
        <ele>423.569466</ele>
        <time>2022-08-21T10:16:25.742Z</time>
      </trkpt>
      <trkpt lat="45.74619" lon="3.08738">
        <ele>424.176832</ele>
        <time>2022-08-21T10:16:37.855Z</time>
      </trkpt>
      <trkpt lat="45.74613" lon="3.08744">
        <ele>424.273413</ele>
        <time>2022-08-21T10:16:39.722Z</time>
      </trkpt>
      <trkpt lat="45.74565" lon="3.08779">
        <ele>425.289709</ele>
        <time>2022-08-21T10:16:54.543Z</time>
      </trkpt>
      <trkpt lat="45.74556" lon="3.08771">
        <ele>425.507928</ele>
        <time>2022-08-21T10:16:57.726Z</time>
      </trkpt>
      <trkpt lat="45.74547" lon="3.08775">
        <ele>425.719155</ele>
        <time>2022-08-21T10:17:00.585Z</time>
      </trkpt>
      <trkpt lat="45.74544" lon="3.08796">
        <ele>426.024727</ele>
        <time>2022-08-21T10:17:04.614Z</time>
      </trkpt>
      <trkpt lat="45.74529" lon="3.08817">
        <ele>426.464296</ele>
        <time>2022-08-21T10:17:10.835Z</time>
      </trkpt>
      <trkpt lat="45.74504" lon="3.08853">
        <ele>427.204054</ele>
        <time>2022-08-21T10:17:21.703Z</time>
      </trkpt>
      <trkpt lat="45.74475" lon="3.08896">
        <ele>428.04565</ele>
        <time>2022-08-21T10:17:34.550Z</time>
      </trkpt>
      <trkpt lat="45.74467" lon="3.08908">
        <ele>428.286245</ele>
        <time>2022-08-21T10:17:38.352Z</time>
      </trkpt>
      <trkpt lat="45.74457" lon="3.08921">
        <ele>428.52782</ele>
        <time>2022-08-21T10:17:42.664Z</time>
      </trkpt>
      <trkpt lat="45.74398" lon="3.0901">
        <ele>430.135264</ele>
        <time>2022-08-21T10:18:09.885Z</time>
      </trkpt>
      <trkpt lat="45.74378" lon="3.09041">
        <ele>430.69329</ele>
        <time>2022-08-21T10:18:19.144Z</time>
      </trkpt>
      <trkpt lat="45.74361" lon="3.09081">
        <ele>431.302984</ele>
        <time>2022-08-21T10:18:27.847Z</time>
      </trkpt>
      <trkpt lat="45.74315" lon="3.09234">
        <ele>430.689148</ele>
        <time>2022-08-21T10:18:48.739Z</time>
      </trkpt>
      <trkpt lat="45.74298" lon="3.09316">
        <ele>430.189408</ele>
        <time>2022-08-21T10:18:58.090Z</time>
      </trkpt>
      <trkpt lat="45.74298" lon="3.09375">
        <ele>429.825817</ele>
        <time>2022-08-21T10:19:04.568Z</time>
      </trkpt>
      <trkpt lat="45.74309" lon="3.09447">
        <ele>429.360489</ele>
        <time>2022-08-21T10:19:12.830Z</time>
      </trkpt>
      <trkpt lat="45.74335" lon="3.09518">
        <ele>428.856241</ele>
        <time>2022-08-21T10:19:22.198Z</time>
      </trkpt>
      <trkpt lat="45.74293" lon="3.09551">
        <ele>428.430402</ele>
        <time>2022-08-21T10:19:31.067Z</time>
      </trkpt>
      <trkpt lat="45.74251" lon="3.09579">
        <ele>429.154541</ele>
        <time>2022-08-21T10:19:41.939Z</time>
      </trkpt>
      <trkpt lat="45.74206" lon="3.09616">
        <ele>429.970159</ele>
        <time>2022-08-21T10:19:56.160Z</time>
      </trkpt>
      <trkpt lat="45.74187" lon="3.09629">
        <ele>430.306669</ele>
        <time>2022-08-21T10:20:02.671Z</time>
      </trkpt>
      <trkpt lat="45.74127" lon="3.09674">
        <ele>431.421369</ele>
        <time>2022-08-21T10:20:23.902Z</time>
      </trkpt>
      <trkpt lat="45.74119" lon="3.0968">
        <ele>431.627946</ele>
        <time>2022-08-21T10:20:26.716Z</time>
      </trkpt>
      <trkpt lat="45.74072" lon="3.09721">
        <ele>432.860105</ele>
        <time>2022-08-21T10:20:43.380Z</time>
      </trkpt>
      <trkpt lat="45.7401" lon="3.09777">
        <ele>434.491416</ele>
        <time>2022-08-21T10:21:05.282Z</time>
      </trkpt>
      <trkpt lat="45.73913" lon="3.09883">
        <ele>436.900002</ele>
        <time>2022-08-21T10:21:42.190Z</time>
      </trkpt>
      <trkpt lat="45.73863" lon="3.0991">
        <ele>437.89084</ele>
        <time>2022-08-21T10:21:57.196Z</time>
      </trkpt>
      <trkpt lat="45.73828" lon="3.09914">
        <ele>438.550938</ele>
        <time>2022-08-21T10:22:06.672Z</time>
      </trkpt>
      <trkpt lat="45.73752" lon="3.09899">
        <ele>439.344798</ele>
        <time>2022-08-21T10:22:25.605Z</time>
      </trkpt>
      <trkpt lat="45.73692" lon="3.09897">
        <ele>439.936922</ele>
        <time>2022-08-21T10:22:39.646Z</time>
      </trkpt>
      <trkpt lat="45.73632" lon="3.09907">
        <ele>440.632618</ele>
        <time>2022-08-21T10:22:53.061Z</time>
      </trkpt>
      <trkpt lat="45.73572" lon="3.09898">
        <ele>441.83567</ele>
        <time>2022-08-21T10:23:08.249Z</time>
      </trkpt>
      <trkpt lat="45.73537" lon="3.09892">
        <ele>442.532275</ele>
        <time>2022-08-21T10:23:18.407Z</time>
      </trkpt>
      <trkpt lat="45.73507" lon="3.09888">
        <ele>443.133591</ele>
        <time>2022-08-21T10:23:27.986Z</time>
      </trkpt>
      <trkpt lat="45.735" lon="3.09886">
        <ele>443.274502</ele>
        <time>2022-08-21T10:23:30.287Z</time>
      </trkpt>
      <trkpt lat="45.7348" lon="3.09872">
        <ele>443.716381</ele>
        <time>2022-08-21T10:23:37.837Z</time>
      </trkpt>
      <trkpt lat="45.73463" lon="3.09866">
        <ele>444.14611</ele>
        <time>2022-08-21T10:23:43.903Z</time>
      </trkpt>
      <trkpt lat="45.73422" lon="3.09844">
        <ele>445.890636</ele>
        <time>2022-08-21T10:23:59.810Z</time>
      </trkpt>
      <trkpt lat="45.7339" lon="3.09826">
        <ele>447.248991</ele>
        <time>2022-08-21T10:24:12.632Z</time>
      </trkpt>
      <trkpt lat="45.73375" lon="3.09825">
        <ele>447.834553</ele>
        <time>2022-08-21T10:24:18.271Z</time>
      </trkpt>
      <trkpt lat="45.73356" lon="3.09829">
        <ele>448.592736</ele>
        <time>2022-08-21T10:24:26.037Z</time>
      </trkpt>
      <trkpt lat="45.73327" lon="3.09846">
        <ele>449.825879</ele>
        <time>2022-08-21T10:24:38.862Z</time>
      </trkpt>
      <trkpt lat="45.73313" lon="3.09855">
        <ele>450.459166</ele>
        <time>2022-08-21T10:24:45.600Z</time>
      </trkpt>
      <trkpt lat="45.73244" lon="3.09897">
        <ele>454.432084</ele>
        <time>2022-08-21T10:25:18.702Z</time>
      </trkpt>
      <trkpt lat="45.7321" lon="3.09916">
        <ele>456.494265</ele>
        <time>2022-08-21T10:25:35.464Z</time>
      </trkpt>
      <trkpt lat="45.73199" lon="3.09923">
        <ele>457.200458</ele>
        <time>2022-08-21T10:25:41.752Z</time>
      </trkpt>
      <trkpt lat="45.73177" lon="3.09942">
        <ele>458.640953</ele>
        <time>2022-08-21T10:25:53.701Z</time>
      </trkpt>
      <trkpt lat="45.73173" lon="3.09943">
        <ele>458.858642</ele>
        <time>2022-08-21T10:25:55.709Z</time>
      </trkpt>
      <trkpt lat="45.73168" lon="3.09945">
        <ele>459.170411</ele>
        <time>2022-08-21T10:25:58.719Z</time>
      </trkpt>
      <trkpt lat="45.73161" lon="3.09937">
        <ele>459.697561</ele>
        <time>2022-08-21T10:26:03.078Z</time>
      </trkpt>
      <trkpt lat="45.73145" lon="3.09952">
        <ele>460.819577</ele>
        <time>2022-08-21T10:26:13.242Z</time>
      </trkpt>
      <trkpt lat="45.73124" lon="3.09969">
        <ele>462.401548</ele>
        <time>2022-08-21T10:26:25.673Z</time>
      </trkpt>
      <trkpt lat="45.73112" lon="3.09981">
        <ele>463.471644</ele>
        <time>2022-08-21T10:26:33.701Z</time>
      </trkpt>
      <trkpt lat="45.73088" lon="3.09982">
        <ele>465.263354</ele>
        <time>2022-08-21T10:26:47.296Z</time>
      </trkpt>
      <trkpt lat="45.73076" lon="3.09992">
        <ele>466.294941</ele>
        <time>2022-08-21T10:26:55.609Z</time>
      </trkpt>
      <trkpt lat="45.73071" lon="3.09993">
        <ele>466.638885</ele>
        <time>2022-08-21T10:26:58.202Z</time>
      </trkpt>
      <trkpt lat="45.72983" lon="3.10008">
        <ele>473.099602</ele>
        <time>2022-08-21T10:27:48.317Z</time>
      </trkpt>
      <trkpt lat="45.72972" lon="3.10006">
        <ele>473.911578</ele>
        <time>2022-08-21T10:27:54.901Z</time>
      </trkpt>
      <trkpt lat="45.7296" lon="3.10011">
        <ele>474.87285</ele>
        <time>2022-08-21T10:28:01.929Z</time>
      </trkpt>
      <trkpt lat="45.72941" lon="3.10025">
        <ele>476.611016</ele>
        <time>2022-08-21T10:28:14.237Z</time>
      </trkpt>
      <trkpt lat="45.72912" lon="3.10046">
        <ele>479.170532</ele>
        <time>2022-08-21T10:28:32.469Z</time>
      </trkpt>
      <trkpt lat="45.72905" lon="3.10051">
        <ele>479.830715</ele>
        <time>2022-08-21T10:28:37.392Z</time>
      </trkpt>
      <trkpt lat="45.72879" lon="3.10064">
        <ele>482.009874</ele>
        <time>2022-08-21T10:28:52.915Z</time>
      </trkpt>
      <trkpt lat="45.72868" lon="3.1006">
        <ele>482.912804</ele>
        <time>2022-08-21T10:28:59.786Z</time>
      </trkpt>
      <trkpt lat="45.72864" lon="3.10065">
        <ele>483.360581</ele>
        <time>2022-08-21T10:29:02.953Z</time>
      </trkpt>
      <trkpt lat="45.72833" lon="3.10083">
        <ele>486.056866</ele>
        <time>2022-08-21T10:29:23.251Z</time>
      </trkpt>
      <trkpt lat="45.72813" lon="3.10083">
        <ele>487.648178</ele>
        <time>2022-08-21T10:29:35.290Z</time>
      </trkpt>
      <trkpt lat="45.72745" lon="3.10077">
        <ele>493.893201</ele>
        <time>2022-08-21T10:30:19.029Z</time>
      </trkpt>
      <trkpt lat="45.72718" lon="3.10081">
        <ele>496.415027</ele>
        <time>2022-08-21T10:30:37.050Z</time>
      </trkpt>
      <trkpt lat="45.72705" lon="3.10084">
        <ele>497.603553</ele>
        <time>2022-08-21T10:30:45.550Z</time>
      </trkpt>
      <trkpt lat="45.72681" lon="3.10088">
        <ele>499.933188</ele>
        <time>2022-08-21T10:31:02.735Z</time>
      </trkpt>
      <trkpt lat="45.72645" lon="3.10104">
        <ele>503.45701</ele>
        <time>2022-08-21T10:31:29.075Z</time>
      </trkpt>
      <trkpt lat="45.72584" lon="3.10105">
        <ele>508.983044</ele>
        <time>2022-08-21T10:32:09.553Z</time>
      </trkpt>
      <trkpt lat="45.72549" lon="3.10119">
        <ele>512.153761</ele>
        <time>2022-08-21T10:32:32.310Z</time>
      </trkpt>
      <trkpt lat="45.72522" lon="3.10134">
        <ele>514.761643</ele>
        <time>2022-08-21T10:32:51.033Z</time>
      </trkpt>
      <trkpt lat="45.7251" lon="3.10115">
        <ele>516.335158</ele>
        <time>2022-08-21T10:33:02.113Z</time>
      </trkpt>
      <trkpt lat="45.72509" lon="3.10075">
        <ele>518.842965</ele>
        <time>2022-08-21T10:33:19.205Z</time>
      </trkpt>
      <trkpt lat="45.72516" lon="3.10001">
        <ele>523.158512</ele>
        <time>2022-08-21T10:33:51.999Z</time>
      </trkpt>
      <trkpt lat="45.72519" lon="3.09957">
        <ele>525.570342</ele>
        <time>2022-08-21T10:34:09.864Z</time>
      </trkpt>
      <trkpt lat="45.72522" lon="3.09899">
        <ele>528.710324</ele>
        <time>2022-08-21T10:34:33.211Z</time>
      </trkpt>
      <trkpt lat="45.72505" lon="3.09873">
        <ele>530.581572</ele>
        <time>2022-08-21T10:34:46.488Z</time>
      </trkpt>
      <trkpt lat="45.72491" lon="3.0987">
        <ele>531.731636</ele>
        <time>2022-08-21T10:34:54.001Z</time>
      </trkpt>
      <trkpt lat="45.72478" lon="3.09874">
        <ele>532.730518</ele>
        <time>2022-08-21T10:35:02.056Z</time>
      </trkpt>
      <trkpt lat="45.72435" lon="3.0991">
        <ele>536.660511</ele>
        <time>2022-08-21T10:35:28.645Z</time>
      </trkpt>
      <trkpt lat="45.72427" lon="3.09913">
        <ele>537.422543</ele>
        <time>2022-08-21T10:35:33.426Z</time>
      </trkpt>
      <trkpt lat="45.72408" lon="3.09907">
        <ele>539.073662</ele>
        <time>2022-08-21T10:35:46.372Z</time>
      </trkpt>
      <trkpt lat="45.72401" lon="3.09896">
        <ele>539.963073</ele>
        <time>2022-08-21T10:35:52.777Z</time>
      </trkpt>
      <trkpt lat="45.72395" lon="3.09872">
        <ele>541.462209</ele>
        <time>2022-08-21T10:36:05.238Z</time>
      </trkpt>
      <trkpt lat="45.72397" lon="3.09813">
        <ele>545.011886</ele>
        <time>2022-08-21T10:36:31.064Z</time>
      </trkpt>
      <trkpt lat="45.7239" lon="3.09794">
        <ele>546.282156</ele>
        <time>2022-08-21T10:36:38.486Z</time>
      </trkpt>
      <trkpt lat="45.72374" lon="3.09782">
        <ele>547.775478</ele>
        <time>2022-08-21T10:36:51.055Z</time>
      </trkpt>
      <trkpt lat="45.7234" lon="3.09783">
        <ele>550.670047</ele>
        <time>2022-08-21T10:37:12.753Z</time>
      </trkpt>
      <trkpt lat="45.72306" lon="3.09786">
        <ele>553.631012</ele>
        <time>2022-08-21T10:37:35.282Z</time>
      </trkpt>
      <trkpt lat="45.72282" lon="3.09781">
        <ele>555.739408</ele>
        <time>2022-08-21T10:37:49.497Z</time>
      </trkpt>
      <trkpt lat="45.72254" lon="3.0976">
        <ele>558.409535</ele>
        <time>2022-08-21T10:38:08.820Z</time>
      </trkpt>
      <trkpt lat="45.72243" lon="3.09742">
        <ele>559.852521</ele>
        <time>2022-08-21T10:38:21.461Z</time>
      </trkpt>
      <trkpt lat="45.72228" lon="3.09698">
        <ele>562.835931</ele>
        <time>2022-08-21T10:38:43.007Z</time>
      </trkpt>
      <trkpt lat="45.72216" lon="3.09617">
        <ele>567.652038</ele>
        <time>2022-08-21T10:39:16.145Z</time>
      </trkpt>
      <trkpt lat="45.72207" lon="3.09599">
        <ele>568.816672</ele>
        <time>2022-08-21T10:39:25.537Z</time>
      </trkpt>
      <trkpt lat="45.72156" lon="3.09548">
        <ele>573.6015</ele>
        <time>2022-08-21T10:40:00.720Z</time>
      </trkpt>
      <trkpt lat="45.72138" lon="3.09516">
        <ele>575.802519</ele>
        <time>2022-08-21T10:40:17.855Z</time>
      </trkpt>
      <trkpt lat="45.7213" lon="3.09497">
        <ele>576.997982</ele>
        <time>2022-08-21T10:40:26.735Z</time>
      </trkpt>
      <trkpt lat="45.72118" lon="3.09469">
        <ele>578.746078</ele>
        <time>2022-08-21T10:40:39.687Z</time>
      </trkpt>
      <trkpt lat="45.72109" lon="3.09451">
        <ele>579.897274</ele>
        <time>2022-08-21T10:40:47.978Z</time>
      </trkpt>
      <trkpt lat="45.72102" lon="3.0944">
        <ele>580.73223</ele>
        <time>2022-08-21T10:40:53.825Z</time>
      </trkpt>
      <trkpt lat="45.72079" lon="3.09412">
        <ele>583.149081</ele>
        <time>2022-08-21T10:41:10.744Z</time>
      </trkpt>
      <trkpt lat="45.72073" lon="3.09403">
        <ele>583.868804</ele>
        <time>2022-08-21T10:41:15.955Z</time>
      </trkpt>
      <trkpt lat="45.72064" lon="3.09393">
        <ele>584.754224</ele>
        <time>2022-08-21T10:41:22.016Z</time>
      </trkpt>
      <trkpt lat="45.72031" lon="3.09356">
        <ele>588.098525</ele>
        <time>2022-08-21T10:41:47.581Z</time>
      </trkpt>
      <trkpt lat="45.7193" lon="3.09293">
        <ele>596.532205</ele>
        <time>2022-08-21T10:42:55.333Z</time>
      </trkpt>
      <trkpt lat="45.71905" lon="3.0924">
        <ele>599.606818</ele>
        <time>2022-08-21T10:43:18.997Z</time>
      </trkpt>
      <trkpt lat="45.71888" lon="3.09196">
        <ele>601.979925</ele>
        <time>2022-08-21T10:43:35.534Z</time>
      </trkpt>
      <trkpt lat="45.71878" lon="3.09183">
        <ele>602.930098</ele>
        <time>2022-08-21T10:43:42.066Z</time>
      </trkpt>
      <trkpt lat="45.71806" lon="3.09122">
        <ele>608.670998</ele>
        <time>2022-08-21T10:44:25.318Z</time>
      </trkpt>
      <trkpt lat="45.7177" lon="3.09116">
        <ele>611.222713</ele>
        <time>2022-08-21T10:44:46.290Z</time>
      </trkpt>
      <trkpt lat="45.71703" lon="3.09127">
        <ele>615.930232</ele>
        <time>2022-08-21T10:45:21.260Z</time>
      </trkpt>
      <trkpt lat="45.71652" lon="3.09127">
        <ele>619.497151</ele>
        <time>2022-08-21T10:45:49.587Z</time>
      </trkpt>
      <trkpt lat="45.71619" lon="3.09112">
        <ele>622.203152</ele>
        <time>2022-08-21T10:46:09.993Z</time>
      </trkpt>
      <trkpt lat="45.71565" lon="3.09044">
        <ele>627.72369</ele>
        <time>2022-08-21T10:46:52.991Z</time>
      </trkpt>
      <trkpt lat="45.71526" lon="3.09004">
        <ele>631.368197</ele>
        <time>2022-08-21T10:47:18.987Z</time>
      </trkpt>
      <trkpt lat="45.71459" lon="3.08893">
        <ele>638.819039</ele>
        <time>2022-08-21T10:48:18.817Z</time>
      </trkpt>
      <trkpt lat="45.71429" lon="3.08861">
        <ele>641.413115</ele>
        <time>2022-08-21T10:48:38.145Z</time>
      </trkpt>
      <trkpt lat="45.71414" lon="3.08853">
        <ele>642.558752</ele>
        <time>2022-08-21T10:48:47.716Z</time>
      </trkpt>
      <trkpt lat="45.71398" lon="3.08848">
        <ele>643.696091</ele>
        <time>2022-08-21T10:48:55.890Z</time>
      </trkpt>
      <trkpt lat="45.71369" lon="3.08848">
        <ele>645.801638</ele>
        <time>2022-08-21T10:49:11.920Z</time>
      </trkpt>
      <trkpt lat="45.71286" lon="3.08883">
        <ele>649.89559</ele>
        <time>2022-08-21T10:49:53.159Z</time>
      </trkpt>
      <trkpt lat="45.71246" lon="3.08913">
        <ele>652.01884</ele>
        <time>2022-08-21T10:50:12.835Z</time>
      </trkpt>
      <trkpt lat="45.71088" lon="3.08959">
        <ele>656.773734</ele>
        <time>2022-08-21T10:51:24.240Z</time>
      </trkpt>
      <trkpt lat="45.71086" lon="3.08983">
        <ele>657.134186</ele>
        <time>2022-08-21T10:51:28.874Z</time>
      </trkpt>
      <trkpt lat="45.71059" lon="3.0897">
        <ele>657.749595</ele>
        <time>2022-08-21T10:51:36.705Z</time>
      </trkpt>
      <trkpt lat="45.70873" lon="3.09001">
        <ele>659.582773</ele>
        <time>2022-08-21T10:52:24.638Z</time>
      </trkpt>
      <trkpt lat="45.70774" lon="3.0902">
        <ele>657.439607</ele>
        <time>2022-08-21T10:52:40.464Z</time>
      </trkpt>
      <trkpt lat="45.70783" lon="3.09069">
        <ele>656.476261</ele>
        <time>2022-08-21T10:52:46.277Z</time>
      </trkpt>
      <trkpt lat="45.70784" lon="3.0907">
        <ele>656.45116</ele>
        <time>2022-08-21T10:52:46.423Z</time>
      </trkpt>
      <trkpt lat="45.70765" lon="3.09077">
        <ele>655.924122</ele>
        <time>2022-08-21T10:52:49.400Z</time>
      </trkpt>
      <trkpt lat="45.70752" lon="3.0908">
        <ele>655.57984</ele>
        <time>2022-08-21T10:52:51.289Z</time>
      </trkpt>
      <trkpt lat="45.70717" lon="3.09093">
        <ele>654.140995</ele>
        <time>2022-08-21T10:52:56.408Z</time>
      </trkpt>
      <trkpt lat="45.70709" lon="3.09078">
        <ele>653.187911</ele>
        <time>2022-08-21T10:52:58.127Z</time>
      </trkpt>
      <trkpt lat="45.70706" lon="3.09045">
        <ele>651.447951</ele>
        <time>2022-08-21T10:53:01.168Z</time>
      </trkpt>
      <trkpt lat="45.70659" lon="3.09036">
        <ele>647.902821</ele>
        <time>2022-08-21T10:53:07.280Z</time>
      </trkpt>
      <trkpt lat="45.70615" lon="3.09036">
        <ele>644.528077</ele>
        <time>2022-08-21T10:53:13.114Z</time>
      </trkpt>
      <trkpt lat="45.70579" lon="3.09023">
        <ele>641.740824</ele>
        <time>2022-08-21T10:53:17.972Z</time>
      </trkpt>
      <trkpt lat="45.7049" lon="3.09037">
        <ele>635.439548</ele>
        <time>2022-08-21T10:53:29.580Z</time>
      </trkpt>
      <trkpt lat="45.70404" lon="3.08993">
        <ele>628.982693</ele>
        <time>2022-08-21T10:53:50.754Z</time>
      </trkpt>
      <trkpt lat="45.70373" lon="3.08964">
        <ele>627.759402</ele>
        <time>2022-08-21T10:53:59.968Z</time>
      </trkpt>
      <trkpt lat="45.7033" lon="3.08946">
        <ele>626.570819</ele>
        <time>2022-08-21T10:54:11.552Z</time>
      </trkpt>
      <trkpt lat="45.70293" lon="3.08939">
        <ele>625.564093</ele>
        <time>2022-08-21T10:54:21.710Z</time>
      </trkpt>
      <trkpt lat="45.70258" lon="3.08903">
        <ele>624.406495</ele>
        <time>2022-08-21T10:54:33.898Z</time>
      </trkpt>
      <trkpt lat="45.70244" lon="3.0888">
        <ele>623.842382</ele>
        <time>2022-08-21T10:54:39.986Z</time>
      </trkpt>
      <trkpt lat="45.70229" lon="3.08817">
        <ele>624.148654</ele>
        <time>2022-08-21T10:54:53.760Z</time>
      </trkpt>
      <trkpt lat="45.70204" lon="3.08791">
        <ele>624.384885</ele>
        <time>2022-08-21T10:55:03.308Z</time>
      </trkpt>
      <trkpt lat="45.701" lon="3.08743">
        <ele>625.42631</ele>
        <time>2022-08-21T10:55:45.409Z</time>
      </trkpt>
      <trkpt lat="45.6995" lon="3.08624">
        <ele>632.460385</ele>
        <time>2022-08-21T10:57:16.724Z</time>
      </trkpt>
      <trkpt lat="45.69884" lon="3.08531">
        <ele>637.907454</ele>
        <time>2022-08-21T10:58:14.655Z</time>
      </trkpt>
      <trkpt lat="45.69803" lon="3.08389">
        <ele>644.569696</ele>
        <time>2022-08-21T10:59:36.442Z</time>
      </trkpt>
      <trkpt lat="45.69821" lon="3.08219">
        <ele>648.642801</ele>
        <time>2022-08-21T11:00:37.130Z</time>
      </trkpt>
      <trkpt lat="45.69865" lon="3.0804">
        <ele>645.6737</ele>
        <time>2022-08-21T11:01:14.398Z</time>
      </trkpt>
      <trkpt lat="45.69851" lon="3.08003">
        <ele>644.674656</ele>
        <time>2022-08-21T11:01:21.358Z</time>
      </trkpt>
      <trkpt lat="45.69766" lon="3.07874">
        <ele>635.147075</ele>
        <time>2022-08-21T11:01:48.914Z</time>
      </trkpt>
      <trkpt lat="45.69723" lon="3.07841">
        <ele>630.32511</ele>
        <time>2022-08-21T11:01:59.431Z</time>
      </trkpt>
      <trkpt lat="45.6965" lon="3.078">
        <ele>621.067093</ele>
        <time>2022-08-21T11:02:15.846Z</time>
      </trkpt>
      <trkpt lat="45.6951" lon="3.07701">
        <ele>597.607181</ele>
        <time>2022-08-21T11:02:47.185Z</time>
      </trkpt>
      <trkpt lat="45.6947" lon="3.0768">
        <ele>591.826311</ele>
        <time>2022-08-21T11:02:55.601Z</time>
      </trkpt>
      <trkpt lat="45.6939" lon="3.0764">
        <ele>580.194485</ele>
        <time>2022-08-21T11:03:12.877Z</time>
      </trkpt>
      <trkpt lat="45.69363" lon="3.07711">
        <ele>573.483679</ele>
        <time>2022-08-21T11:03:19.435Z</time>
      </trkpt>
      <trkpt lat="45.69341" lon="3.0779">
        <ele>571.097123</ele>
        <time>2022-08-21T11:03:27.110Z</time>
      </trkpt>
      <trkpt lat="45.69298" lon="3.07862">
        <ele>568.441861</ele>
        <time>2022-08-21T11:03:37.388Z</time>
      </trkpt>
      <trkpt lat="45.69291" lon="3.07891">
        <ele>567.596418</ele>
        <time>2022-08-21T11:03:40.587Z</time>
      </trkpt>
      <trkpt lat="45.69281" lon="3.07883">
        <ele>567.128127</ele>
        <time>2022-08-21T11:03:45.365Z</time>
      </trkpt>
      <trkpt lat="45.69274" lon="3.07868">
        <ele>566.741097</ele>
        <time>2022-08-21T11:03:48.415Z</time>
      </trkpt>
      <trkpt lat="45.6928" lon="3.07759">
        <ele>569.148706</ele>
        <time>2022-08-21T11:04:08.496Z</time>
      </trkpt>
      <trkpt lat="45.69295" lon="3.07705">
        <ele>570.442552</ele>
        <time>2022-08-21T11:04:23.580Z</time>
      </trkpt>
      <trkpt lat="45.69296" lon="3.07685">
        <ele>570.879532</ele>
        <time>2022-08-21T11:04:31.085Z</time>
      </trkpt>
      <trkpt lat="45.69295" lon="3.07676">
        <ele>571.077202</ele>
        <time>2022-08-21T11:04:34.064Z</time>
      </trkpt>
      <trkpt lat="45.69296" lon="3.07658">
        <ele>571.478214</ele>
        <time>2022-08-21T11:04:40.486Z</time>
      </trkpt>
      <trkpt lat="45.69308" lon="3.07626">
        <ele>572.293586</ele>
        <time>2022-08-21T11:04:53.076Z</time>
      </trkpt>
      <trkpt lat="45.69306" lon="3.07617">
        <ele>572.692771</ele>
        <time>2022-08-21T11:04:56.423Z</time>
      </trkpt>
      <trkpt lat="45.69296" lon="3.07608">
        <ele>573.686914</ele>
        <time>2022-08-21T11:05:02.302Z</time>
      </trkpt>
      <trkpt lat="45.69259" lon="3.07581">
        <ele>577.12964</ele>
        <time>2022-08-21T11:05:23.618Z</time>
      </trkpt>
      <trkpt lat="45.69212" lon="3.07586">
        <ele>581.054215</ele>
        <time>2022-08-21T11:05:48.798Z</time>
      </trkpt>
      <trkpt lat="45.69195" lon="3.0758">
        <ele>582.465312</ele>
        <time>2022-08-21T11:06:00.669Z</time>
      </trkpt>
      <trkpt lat="45.69186" lon="3.07568">
        <ele>583.484041</ele>
        <time>2022-08-21T11:06:09.203Z</time>
      </trkpt>
      <trkpt lat="45.69134" lon="3.07421">
        <ele>597.056204</ele>
        <time>2022-08-21T11:07:39.746Z</time>
      </trkpt>
      <trkpt lat="45.69119" lon="3.07361">
        <ele>603.293089</ele>
        <time>2022-08-21T11:08:20.273Z</time>
      </trkpt>
      <trkpt lat="45.69106" lon="3.07299">
        <ele>609.679254</ele>
        <time>2022-08-21T11:09:09.746Z</time>
      </trkpt>
      <trkpt lat="45.6908" lon="3.07218">
        <ele>619.387315</ele>
        <time>2022-08-21T11:10:25.708Z</time>
      </trkpt>
      <trkpt lat="45.69074" lon="3.07183">
        <ele>623.528488</ele>
        <time>2022-08-21T11:10:58.185Z</time>
      </trkpt>
      <trkpt lat="45.69055" lon="3.07165">
        <ele>627.138802</ele>
        <time>2022-08-21T11:11:22.663Z</time>
      </trkpt>
      <trkpt lat="45.68962" lon="3.0711">
        <ele>643.329367</ele>
        <time>2022-08-21T11:13:13.655Z</time>
      </trkpt>
      <trkpt lat="45.68974" lon="3.06968">
        <ele>656.629923</ele>
        <time>2022-08-21T11:14:58.445Z</time>
      </trkpt>
      <trkpt lat="45.69006" lon="3.06874">
        <ele>666.333985</ele>
        <time>2022-08-21T11:16:03.596Z</time>
      </trkpt>
      <trkpt lat="45.69022" lon="3.06771">
        <ele>674.289428</ele>
        <time>2022-08-21T11:17:04.330Z</time>
      </trkpt>
      <trkpt lat="45.69025" lon="3.06715">
        <ele>678.510428</ele>
        <time>2022-08-21T11:17:39.216Z</time>
      </trkpt>
      <trkpt lat="45.69016" lon="3.06669">
        <ele>682.059034</ele>
        <time>2022-08-21T11:18:08.245Z</time>
      </trkpt>
      <trkpt lat="45.68994" lon="3.06646">
        <ele>684.979468</ele>
        <time>2022-08-21T11:18:32.517Z</time>
      </trkpt>
      <trkpt lat="45.68984" lon="3.06647">
        <ele>685.939466</ele>
        <time>2022-08-21T11:18:40.005Z</time>
      </trkpt>
      <trkpt lat="45.68984" lon="3.06629">
        <ele>687.068224</ele>
        <time>2022-08-21T11:18:52.794Z</time>
      </trkpt>
      <trkpt lat="45.68943" lon="3.06674">
        <ele>691.52399</ele>
        <time>2022-08-21T11:19:32.304Z</time>
      </trkpt>
      <trkpt lat="45.68871" lon="3.06794">
        <ele>700.914895</ele>
        <time>2022-08-21T11:20:54.622Z</time>
      </trkpt>
      <trkpt lat="45.68807" lon="3.0695">
        <ele>705.936361</ele>
        <time>2022-08-21T11:22:02.966Z</time>
      </trkpt>
      <trkpt lat="45.68651" lon="3.07222">
        <ele>709.895589</ele>
        <time>2022-08-21T11:23:34.774Z</time>
      </trkpt>
      <trkpt lat="45.68622" lon="3.07289">
        <ele>709.909121</ele>
        <time>2022-08-21T11:23:51.930Z</time>
      </trkpt>
      <trkpt lat="45.68597" lon="3.07324">
        <ele>709.91757</ele>
        <time>2022-08-21T11:24:02.412Z</time>
      </trkpt>
      <trkpt lat="45.68582" lon="3.07427">
        <ele>709.935583</ele>
        <time>2022-08-21T11:24:24.421Z</time>
      </trkpt>
      <trkpt lat="45.68585" lon="3.07517">
        <ele>711.55539</ele>
        <time>2022-08-21T11:24:49.795Z</time>
      </trkpt>
      <trkpt lat="45.68577" lon="3.07542">
        <ele>712.040503</ele>
        <time>2022-08-21T11:24:58.125Z</time>
      </trkpt>
      <trkpt lat="45.6856" lon="3.07562">
        <ele>712.613177</ele>
        <time>2022-08-21T11:25:08.950Z</time>
      </trkpt>
      <trkpt lat="45.68526" lon="3.07628">
        <ele>714.108394</ele>
        <time>2022-08-21T11:25:36.049Z</time>
      </trkpt>
      <trkpt lat="45.68507" lon="3.07638">
        <ele>714.629581</ele>
        <time>2022-08-21T11:25:48.019Z</time>
      </trkpt>
      <trkpt lat="45.68398" lon="3.07609">
        <ele>718.743502</ele>
        <time>2022-08-21T11:26:47.705Z</time>
      </trkpt>
      <trkpt lat="45.68386" lon="3.07604">
        <ele>719.215914</ele>
        <time>2022-08-21T11:26:53.233Z</time>
      </trkpt>
      <trkpt lat="45.68406" lon="3.07465">
        <ele>722.349374</ele>
        <time>2022-08-21T11:27:39.336Z</time>
      </trkpt>
      <trkpt lat="45.68414" lon="3.07341">
        <ele>724.466807</ele>
        <time>2022-08-21T11:28:17.002Z</time>
      </trkpt>
      <trkpt lat="45.68405" lon="3.07273">
        <ele>725.652315</ele>
        <time>2022-08-21T11:28:38.538Z</time>
      </trkpt>
      <trkpt lat="45.68394" lon="3.07238">
        <ele>725.405592</ele>
        <time>2022-08-21T11:28:49.874Z</time>
      </trkpt>
      <trkpt lat="45.68387" lon="3.07213">
        <ele>725.217531</ele>
        <time>2022-08-21T11:28:59.040Z</time>
      </trkpt>
      <trkpt lat="45.68389" lon="3.07001">
        <ele>722.723443</ele>
        <time>2022-08-21T11:29:40.230Z</time>
      </trkpt>
      <trkpt lat="45.68364" lon="3.07002">
        <ele>720.521619</ele>
        <time>2022-08-21T11:29:43.699Z</time>
      </trkpt>
      <trkpt lat="45.68338" lon="3.06994">
        <ele>718.227393</ele>
        <time>2022-08-21T11:29:47.187Z</time>
      </trkpt>
      <trkpt lat="45.68315" lon="3.0697">
        <ele>715.734051</ele>
        <time>2022-08-21T11:29:53.425Z</time>
      </trkpt>
      <trkpt lat="45.68265" lon="3.06936">
        <ele>710.914393</ele>
        <time>2022-08-21T11:30:05.186Z</time>
      </trkpt>
      <trkpt lat="45.68165" lon="3.06876">
        <ele>699.427601</ele>
        <time>2022-08-21T11:30:27.457Z</time>
      </trkpt>
      <trkpt lat="45.68088" lon="3.0687">
        <ele>690.624879</ele>
        <time>2022-08-21T11:30:43.892Z</time>
      </trkpt>
      <trkpt lat="45.68009" lon="3.06868">
        <ele>684.527503</ele>
        <time>2022-08-21T11:31:01.059Z</time>
      </trkpt>
      <trkpt lat="45.67947" lon="3.06856">
        <ele>680.735713</ele>
        <time>2022-08-21T11:31:15.642Z</time>
      </trkpt>
      <trkpt lat="45.67905" lon="3.06835">
        <ele>678.072727</ele>
        <time>2022-08-21T11:31:26.928Z</time>
      </trkpt>
      <trkpt lat="45.67875" lon="3.06831">
        <ele>676.743282</ele>
        <time>2022-08-21T11:31:34.766Z</time>
      </trkpt>
      <trkpt lat="45.67764" lon="3.06843">
        <ele>674.918439</ele>
        <time>2022-08-21T11:32:06.889Z</time>
      </trkpt>
      <trkpt lat="45.67636" lon="3.06871">
        <ele>671.253333</ele>
        <time>2022-08-21T11:32:43.724Z</time>
      </trkpt>
      <trkpt lat="45.67615" lon="3.06874">
        <ele>670.444186</ele>
        <time>2022-08-21T11:32:49.210Z</time>
      </trkpt>
      <trkpt lat="45.67612" lon="3.06866">
        <ele>670.208122</ele>
        <time>2022-08-21T11:32:50.782Z</time>
      </trkpt>
      <trkpt lat="45.67612" lon="3.06797">
        <ele>668.369335</ele>
        <time>2022-08-21T11:33:02.680Z</time>
      </trkpt>
      <trkpt lat="45.6758" lon="3.06554">
        <ele>656.310364</ele>
        <time>2022-08-21T11:33:41.215Z</time>
      </trkpt>
      <trkpt lat="45.67568" lon="3.06491">
        <ele>652.831256</ele>
        <time>2022-08-21T11:33:51.248Z</time>
      </trkpt>
      <trkpt lat="45.67543" lon="3.06417">
        <ele>648.845112</ele>
        <time>2022-08-21T11:34:04.182Z</time>
      </trkpt>
      <trkpt lat="45.67534" lon="3.06367">
        <ele>646.369239</ele>
        <time>2022-08-21T11:34:12.292Z</time>
      </trkpt>
      <trkpt lat="45.67527" lon="3.06266">
        <ele>641.430877</ele>
        <time>2022-08-21T11:34:28.861Z</time>
      </trkpt>
      <trkpt lat="45.67484" lon="3.06116">
        <ele>635.039952</ele>
        <time>2022-08-21T11:34:55.782Z</time>
      </trkpt>
      <trkpt lat="45.67456" lon="3.06065">
        <ele>632.511636</ele>
        <time>2022-08-21T11:35:06.454Z</time>
      </trkpt>
      <trkpt lat="45.67419" lon="3.06042">
        <ele>630.201525</ele>
        <time>2022-08-21T11:35:16.096Z</time>
      </trkpt>
      <trkpt lat="45.67358" lon="3.05987">
        <ele>625.631354</ele>
        <time>2022-08-21T11:35:33.028Z</time>
      </trkpt>
      <trkpt lat="45.67349" lon="3.05965">
        <ele>624.505113</ele>
        <time>2022-08-21T11:35:37.060Z</time>
      </trkpt>
      <trkpt lat="45.67349" lon="3.05882">
        <ele>620.80812</ele>
        <time>2022-08-21T11:35:50.552Z</time>
      </trkpt>
      <trkpt lat="45.67342" lon="3.05849">
        <ele>619.296725</ele>
        <time>2022-08-21T11:35:55.905Z</time>
      </trkpt>
      <trkpt lat="45.67246" lon="3.05866">
        <ele>612.610923</ele>
        <time>2022-08-21T11:36:17.821Z</time>
      </trkpt>
      <trkpt lat="45.67215" lon="3.0586">
        <ele>610.510694</ele>
        <time>2022-08-21T11:36:24.788Z</time>
      </trkpt>
      <trkpt lat="45.67129" lon="3.05821">
        <ele>605.742056</ele>
        <time>2022-08-21T11:36:45.770Z</time>
      </trkpt>
      <trkpt lat="45.67123" lon="3.05805">
        <ele>605.333981</ele>
        <time>2022-08-21T11:36:48.893Z</time>
      </trkpt>
      <trkpt lat="45.67056" lon="3.0577">
        <ele>603.03488</ele>
        <time>2022-08-21T11:37:06.982Z</time>
      </trkpt>
      <trkpt lat="45.66992" lon="3.05719">
        <ele>601.427298</ele>
        <time>2022-08-21T11:37:28.425Z</time>
      </trkpt>
      <trkpt lat="45.66959" lon="3.05682">
        <ele>602.012533</ele>
        <time>2022-08-21T11:37:44.248Z</time>
      </trkpt>
      <trkpt lat="45.66932" lon="3.05616">
        <ele>602.74077</ele>
        <time>2022-08-21T11:38:05.465Z</time>
      </trkpt>
      <trkpt lat="45.6693" lon="3.05566">
        <ele>603.222354</ele>
        <time>2022-08-21T11:38:20.133Z</time>
      </trkpt>
      <trkpt lat="45.66904" lon="3.0548">
        <ele>605.030662</ele>
        <time>2022-08-21T11:38:49.577Z</time>
      </trkpt>
      <trkpt lat="45.6686" lon="3.05403">
        <ele>607.911845</ele>
        <time>2022-08-21T11:39:25.207Z</time>
      </trkpt>
      <trkpt lat="45.66848" lon="3.05372">
        <ele>608.937717</ele>
        <time>2022-08-21T11:39:38.472Z</time>
      </trkpt>
      <trkpt lat="45.66817" lon="3.0517">
        <ele>616.262338</ele>
        <time>2022-08-21T11:41:04.826Z</time>
      </trkpt>
      <trkpt lat="45.66819" lon="3.0512">
        <ele>618.23291</ele>
        <time>2022-08-21T11:41:26.361Z</time>
      </trkpt>
      <trkpt lat="45.66818" lon="3.05075">
        <ele>620.005049</ele>
        <time>2022-08-21T11:41:45.577Z</time>
      </trkpt>
      <trkpt lat="45.66806" lon="3.0498">
        <ele>623.493248</ele>
        <time>2022-08-21T11:42:25.409Z</time>
      </trkpt>
      <trkpt lat="45.66769" lon="3.04809">
        <ele>629.773887</ele>
        <time>2022-08-21T11:43:34.711Z</time>
      </trkpt>
      <trkpt lat="45.66761" lon="3.04792">
        <ele>630.530124</ele>
        <time>2022-08-21T11:43:43.399Z</time>
      </trkpt>
      <trkpt lat="45.66729" lon="3.04764">
        <ele>632.444699</ele>
        <time>2022-08-21T11:44:04.661Z</time>
      </trkpt>
      <trkpt lat="45.66724" lon="3.04727">
        <ele>633.781944</ele>
        <time>2022-08-21T11:44:18.657Z</time>
      </trkpt>
      <trkpt lat="45.66728" lon="3.04622">
        <ele>637.569138</ele>
        <time>2022-08-21T11:45:00.551Z</time>
      </trkpt>
      <trkpt lat="45.66741" lon="3.04594">
        <ele>638.798764</ele>
        <time>2022-08-21T11:45:13.826Z</time>
      </trkpt>
      <trkpt lat="45.66742" lon="3.04572">
        <ele>639.640357</ele>
        <time>2022-08-21T11:45:26.463Z</time>
      </trkpt>
      <trkpt lat="45.66757" lon="3.04533">
        <ele>641.521343</ele>
        <time>2022-08-21T11:45:42.590Z</time>
      </trkpt>
      <trkpt lat="45.66789" lon="3.04462">
        <ele>645.182842</ele>
        <time>2022-08-21T11:46:19.514Z</time>
      </trkpt>
      <trkpt lat="45.66795" lon="3.04461">
        <ele>645.567002</ele>
        <time>2022-08-21T11:46:22.062Z</time>
      </trkpt>
      <trkpt lat="45.66796" lon="3.04443">
        <ele>646.308163</ele>
        <time>2022-08-21T11:46:32.949Z</time>
      </trkpt>
      <trkpt lat="45.66811" lon="3.04415">
        <ele>647.878313</ele>
        <time>2022-08-21T11:46:45.964Z</time>
      </trkpt>
      <trkpt lat="45.6681" lon="3.04396">
        <ele>648.688961</ele>
        <time>2022-08-21T11:46:56.835Z</time>
      </trkpt>
      <trkpt lat="45.6682" lon="3.04335">
        <ele>651.660374</ele>
        <time>2022-08-21T11:47:23.594Z</time>
      </trkpt>
      <trkpt lat="45.66814" lon="3.04321">
        <ele>652.585867</ele>
        <time>2022-08-21T11:47:30.366Z</time>
      </trkpt>
      <trkpt lat="45.668" lon="3.04314">
        <ele>653.834024</ele>
        <time>2022-08-21T11:47:43.147Z</time>
      </trkpt>
      <trkpt lat="45.66789" lon="3.04287">
        <ele>655.590566</ele>
        <time>2022-08-21T11:47:54.400Z</time>
      </trkpt>
      <trkpt lat="45.66781" lon="3.04252">
        <ele>657.686005</ele>
        <time>2022-08-21T11:48:15.758Z</time>
      </trkpt>
      <trkpt lat="45.66759" lon="3.04235">
        <ele>659.711899</ele>
        <time>2022-08-21T11:48:30.718Z</time>
      </trkpt>
      <trkpt lat="45.66741" lon="3.04198">
        <ele>662.303319</ele>
        <time>2022-08-21T11:48:53.549Z</time>
      </trkpt>
      <trkpt lat="45.66726" lon="3.04196">
        <ele>663.460521</ele>
        <time>2022-08-21T11:49:05.978Z</time>
      </trkpt>
      <trkpt lat="45.66715" lon="3.04204">
        <ele>664.504341</ele>
        <time>2022-08-21T11:49:16.769Z</time>
      </trkpt>
      <trkpt lat="45.66705" lon="3.04265">
        <ele>669.769173</ele>
        <time>2022-08-21T11:49:53.289Z</time>
      </trkpt>
      <trkpt lat="45.66697" lon="3.04279">
        <ele>671.515982</ele>
        <time>2022-08-21T11:50:07.686Z</time>
      </trkpt>
      <trkpt lat="45.6667" lon="3.04301">
        <ele>675.518344</ele>
        <time>2022-08-21T11:50:36.547Z</time>
      </trkpt>
      <trkpt lat="45.66661" lon="3.04294">
        <ele>676.860349</ele>
        <time>2022-08-21T11:50:47.394Z</time>
      </trkpt>
      <trkpt lat="45.66616" lon="3.04219">
        <ele>685.942989</ele>
        <time>2022-08-21T11:51:57.116Z</time>
      </trkpt>
      <trkpt lat="45.66598" lon="3.04193">
        <ele>689.249218</ele>
        <time>2022-08-21T11:52:23.730Z</time>
      </trkpt>
      <trkpt lat="45.66592" lon="3.04187">
        <ele>690.176356</ele>
        <time>2022-08-21T11:52:33.265Z</time>
      </trkpt>
      <trkpt lat="45.66549" lon="3.04167">
        <ele>695.927085</ele>
        <time>2022-08-21T11:53:23.163Z</time>
      </trkpt>
      <trkpt lat="45.66516" lon="3.04139">
        <ele>700.802022</ele>
        <time>2022-08-21T11:54:02.948Z</time>
      </trkpt>
      <trkpt lat="45.66527" lon="3.04096">
        <ele>704.805497</ele>
        <time>2022-08-21T11:54:32.515Z</time>
      </trkpt>
      <trkpt lat="45.6653" lon="3.04079">
        <ele>706.39132</ele>
        <time>2022-08-21T11:54:43.503Z</time>
      </trkpt>
      <trkpt lat="45.66541" lon="3.04026">
        <ele>711.282696</ele>
        <time>2022-08-21T11:55:14.565Z</time>
      </trkpt>
      <trkpt lat="45.66538" lon="3.04012">
        <ele>712.107226</ele>
        <time>2022-08-21T11:55:21.893Z</time>
      </trkpt>
      <trkpt lat="45.66466" lon="3.03947">
        <ele>717.549955</ele>
        <time>2022-08-21T11:56:21.795Z</time>
      </trkpt>
      <trkpt lat="45.66443" lon="3.03907">
        <ele>719.903157</ele>
        <time>2022-08-21T11:56:44.946Z</time>
      </trkpt>
      <trkpt lat="45.66438" lon="3.03874">
        <ele>721.389053</ele>
        <time>2022-08-21T11:56:57.694Z</time>
      </trkpt>
      <trkpt lat="45.66464" lon="3.03831">
        <ele>723.468174</ele>
        <time>2022-08-21T11:57:15.497Z</time>
      </trkpt>
      <trkpt lat="45.66474" lon="3.03765">
        <ele>724.678647</ele>
        <time>2022-08-21T11:57:36.964Z</time>
      </trkpt>
      <trkpt lat="45.6646" lon="3.03714">
        <ele>725.644108</ele>
        <time>2022-08-21T11:57:53.893Z</time>
      </trkpt>
      <trkpt lat="45.66434" lon="3.03669">
        <ele>726.702853</ele>
        <time>2022-08-21T11:58:12.304Z</time>
      </trkpt>
      <trkpt lat="45.66427" lon="3.03644">
        <ele>727.173243</ele>
        <time>2022-08-21T11:58:19.181Z</time>
      </trkpt>
      <trkpt lat="45.66412" lon="3.03569">
        <ele>728.398763</ele>
        <time>2022-08-21T11:58:42.388Z</time>
      </trkpt>
      <trkpt lat="45.66392" lon="3.03522">
        <ele>729.183744</ele>
        <time>2022-08-21T11:58:57.914Z</time>
      </trkpt>
      <trkpt lat="45.6637" lon="3.03495">
        <ele>729.764241</ele>
        <time>2022-08-21T11:59:09.554Z</time>
      </trkpt>
      <trkpt lat="45.66365" lon="3.03477">
        <ele>730.041076</ele>
        <time>2022-08-21T11:59:14.883Z</time>
      </trkpt>
      <trkpt lat="45.66394" lon="3.03399">
        <ele>731.300215</ele>
        <time>2022-08-21T11:59:42.051Z</time>
      </trkpt>
      <trkpt lat="45.66401" lon="3.03336">
        <ele>732.350377</ele>
        <time>2022-08-21T12:00:01.346Z</time>
      </trkpt>
      <trkpt lat="45.66399" lon="3.03322">
        <ele>732.591056</ele>
        <time>2022-08-21T12:00:05.745Z</time>
      </trkpt>
      <trkpt lat="45.66384" lon="3.03291">
        <ele>733.206614</ele>
        <time>2022-08-21T12:00:17.061Z</time>
      </trkpt>
      <trkpt lat="45.66368" lon="3.03272">
        <ele>733.713468</ele>
        <time>2022-08-21T12:00:26.749Z</time>
      </trkpt>
      <trkpt lat="45.66366" lon="3.03254">
        <ele>734.002493</ele>
        <time>2022-08-21T12:00:32.138Z</time>
      </trkpt>
      <trkpt lat="45.6637" lon="3.03233">
        <ele>734.373617</ele>
        <time>2022-08-21T12:00:39.131Z</time>
      </trkpt>
      <trkpt lat="45.66367" lon="3.03208">
        <ele>734.794796</ele>
        <time>2022-08-21T12:00:47.006Z</time>
      </trkpt>
      <trkpt lat="45.66351" lon="3.0319">
        <ele>735.288308</ele>
        <time>2022-08-21T12:00:56.066Z</time>
      </trkpt>
      <trkpt lat="45.66337" lon="3.03134">
        <ele>736.087788</ele>
        <time>2022-08-21T12:01:13.846Z</time>
      </trkpt>
      <trkpt lat="45.66338" lon="3.03106">
        <ele>736.404172</ele>
        <time>2022-08-21T12:01:21.824Z</time>
      </trkpt>
      <trkpt lat="45.66323" lon="3.03066">
        <ele>736.927337</ele>
        <time>2022-08-21T12:01:34.366Z</time>
      </trkpt>
      <trkpt lat="45.66313" lon="3.03025">
        <ele>737.419261</ele>
        <time>2022-08-21T12:01:45.897Z</time>
      </trkpt>
      <trkpt lat="45.66295" lon="3.02997">
        <ele>737.85759</ele>
        <time>2022-08-21T12:01:56.055Z</time>
      </trkpt>
      <trkpt lat="45.66291" lon="3.02941">
        <ele>738.497897</ele>
        <time>2022-08-21T12:02:10.786Z</time>
      </trkpt>
      <trkpt lat="45.66279" lon="3.02915">
        <ele>738.866276</ele>
        <time>2022-08-21T12:02:19.516Z</time>
      </trkpt>
      <trkpt lat="45.66268" lon="3.02784">
        <ele>740.448324</ele>
        <time>2022-08-21T12:02:57.893Z</time>
      </trkpt>
      <trkpt lat="45.66272" lon="3.02754">
        <ele>740.817403</ele>
        <time>2022-08-21T12:03:06.411Z</time>
      </trkpt>
      <trkpt lat="45.66313" lon="3.0273">
        <ele>741.569749</ele>
        <time>2022-08-21T12:03:24.748Z</time>
      </trkpt>
      <trkpt lat="45.66333" lon="3.02694">
        <ele>741.938745</ele>
        <time>2022-08-21T12:03:37.415Z</time>
      </trkpt>
      <trkpt lat="45.66387" lon="3.02634">
        <ele>742.585752</ele>
        <time>2022-08-21T12:04:02.368Z</time>
      </trkpt>
      <trkpt lat="45.66421" lon="3.02575">
        <ele>743.092357</ele>
        <time>2022-08-21T12:04:22.239Z</time>
      </trkpt>
      <trkpt lat="45.66423" lon="3.02545">
        <ele>743.295087</ele>
        <time>2022-08-21T12:04:29.492Z</time>
      </trkpt>
      <trkpt lat="45.66404" lon="3.02537">
        <ele>743.451404</ele>
        <time>2022-08-21T12:04:33.239Z</time>
      </trkpt>
      <trkpt lat="45.66342" lon="3.02392">
        <ele>744.085712</ele>
        <time>2022-08-21T12:04:57.424Z</time>
      </trkpt>
      <trkpt lat="45.66328" lon="3.02346">
        <ele>744.274725</ele>
        <time>2022-08-21T12:05:05.483Z</time>
      </trkpt>
      <trkpt lat="45.66332" lon="3.02335">
        <ele>744.32029</ele>
        <time>2022-08-21T12:05:07.940Z</time>
      </trkpt>
      <trkpt lat="45.66313" lon="3.0229">
        <ele>745.126099</ele>
        <time>2022-08-21T12:05:19.107Z</time>
      </trkpt>
      <trkpt lat="45.66313" lon="3.02273">
        <ele>745.474742</ele>
        <time>2022-08-21T12:05:23.216Z</time>
      </trkpt>
      <trkpt lat="45.66308" lon="3.02243">
        <ele>746.09787</ele>
        <time>2022-08-21T12:05:32.758Z</time>
      </trkpt>
      <trkpt lat="45.66301" lon="3.02238">
        <ele>746.321261</ele>
        <time>2022-08-21T12:05:36.237Z</time>
      </trkpt>
      <trkpt lat="45.66302" lon="3.02183">
        <ele>747.425988</ele>
        <time>2022-08-21T12:05:54.356Z</time>
      </trkpt>
      <trkpt lat="45.66277" lon="3.02165">
        <ele>748.230676</ele>
        <time>2022-08-21T12:06:04.917Z</time>
      </trkpt>
      <trkpt lat="45.66265" lon="3.02123">
        <ele>749.148502</ele>
        <time>2022-08-21T12:06:17.202Z</time>
      </trkpt>
      <trkpt lat="45.66256" lon="3.02109">
        <ele>749.529145</ele>
        <time>2022-08-21T12:06:22.616Z</time>
      </trkpt>
      <trkpt lat="45.66221" lon="3.0203">
        <ele>751.813429</ele>
        <time>2022-08-21T12:06:48.191Z</time>
      </trkpt>
      <trkpt lat="45.66212" lon="3.02009">
        <ele>752.419372</ele>
        <time>2022-08-21T12:06:54.653Z</time>
      </trkpt>
      <trkpt lat="45.6621" lon="3.01974">
        <ele>753.286187</ele>
        <time>2022-08-21T12:07:07.404Z</time>
      </trkpt>
      <trkpt lat="45.66214" lon="3.01931">
        <ele>754.344581</ele>
        <time>2022-08-21T12:07:22.654Z</time>
      </trkpt>
      <trkpt lat="45.66285" lon="3.01719">
        <ele>759.401481</ele>
        <time>2022-08-21T12:08:37.776Z</time>
      </trkpt>
      <trkpt lat="45.66297" lon="3.01647">
        <ele>760.893408</ele>
        <time>2022-08-21T12:09:01.470Z</time>
      </trkpt>
      <trkpt lat="45.66341" lon="3.01585">
        <ele>763.461889</ele>
        <time>2022-08-21T12:09:31.122Z</time>
      </trkpt>
      <trkpt lat="45.66361" lon="3.01574">
        <ele>764.372394</ele>
        <time>2022-08-21T12:09:41.944Z</time>
      </trkpt>
      <trkpt lat="45.66375" lon="3.01558">
        <ele>765.161759</ele>
        <time>2022-08-21T12:09:51.131Z</time>
      </trkpt>
      <trkpt lat="45.66405" lon="3.01505">
        <ele>767.197682</ele>
        <time>2022-08-21T12:10:17.174Z</time>
      </trkpt>
      <trkpt lat="45.66388" lon="3.0144">
        <ele>769.501798</ele>
        <time>2022-08-21T12:10:45.727Z</time>
      </trkpt>
      <trkpt lat="45.6639" lon="3.01339">
        <ele>774.075163</ele>
        <time>2022-08-21T12:11:32.809Z</time>
      </trkpt>
      <trkpt lat="45.66371" lon="3.01224">
        <ele>779.441163</ele>
        <time>2022-08-21T12:12:27.463Z</time>
      </trkpt>
      <trkpt lat="45.66368" lon="3.01147">
        <ele>782.201488</ele>
        <time>2022-08-21T12:13:01.382Z</time>
      </trkpt>
      <trkpt lat="45.66351" lon="3.01093">
        <ele>784.135702</ele>
        <time>2022-08-21T12:13:25.486Z</time>
      </trkpt>
      <trkpt lat="45.66349" lon="3.00999">
        <ele>787.203208</ele>
        <time>2022-08-21T12:14:01.119Z</time>
      </trkpt>
      <trkpt lat="45.66342" lon="3.00963">
        <ele>788.41002</ele>
        <time>2022-08-21T12:14:13.336Z</time>
      </trkpt>
      <trkpt lat="45.66342" lon="3.00933">
        <ele>789.201305</ele>
        <time>2022-08-21T12:14:22.532Z</time>
      </trkpt>
      <trkpt lat="45.66352" lon="3.00921">
        <ele>789.612676</ele>
        <time>2022-08-21T12:14:27.643Z</time>
      </trkpt>
      <trkpt lat="45.66374" lon="3.00915">
        <ele>790.367877</ele>
        <time>2022-08-21T12:14:37.221Z</time>
      </trkpt>
      <trkpt lat="45.66411" lon="3.00918">
        <ele>791.577892</ele>
        <time>2022-08-21T12:14:52.216Z</time>
      </trkpt>
      <trkpt lat="45.66436" lon="3.00935">
        <ele>792.508917</ele>
        <time>2022-08-21T12:15:06.274Z</time>
      </trkpt>
      <trkpt lat="45.66501" lon="3.00951">
        <ele>794.676146</ele>
        <time>2022-08-21T12:15:40.194Z</time>
      </trkpt>
      <trkpt lat="45.66523" lon="3.00935">
        <ele>795.944354</ele>
        <time>2022-08-21T12:15:52.745Z</time>
      </trkpt>
      <trkpt lat="45.66537" lon="3.00914">
        <ele>797.005646</ele>
        <time>2022-08-21T12:16:06.755Z</time>
      </trkpt>
      <trkpt lat="45.66538" lon="3.00889">
        <ele>797.921104</ele>
        <time>2022-08-21T12:16:14.911Z</time>
      </trkpt>
      <trkpt lat="45.6653" lon="3.00871">
        <ele>798.670595</ele>
        <time>2022-08-21T12:16:25.789Z</time>
      </trkpt>
      <trkpt lat="45.66486" lon="3.00825">
        <ele>801.55728</ele>
        <time>2022-08-21T12:16:56.001Z</time>
      </trkpt>
      <trkpt lat="45.66481" lon="3.00804">
        <ele>802.377276</ele>
        <time>2022-08-21T12:17:07.962Z</time>
      </trkpt>
      <trkpt lat="45.66483" lon="3.00783">
        <ele>803.121601</ele>
        <time>2022-08-21T12:17:14.884Z</time>
      </trkpt>
      <trkpt lat="45.66593" lon="3.00666">
        <ele>809.748955</ele>
        <time>2022-08-21T12:18:36.171Z</time>
      </trkpt>
      <trkpt lat="45.66618" lon="3.00611">
        <ele>811.927159</ele>
        <time>2022-08-21T12:18:58.654Z</time>
      </trkpt>
      <trkpt lat="45.66691" lon="3.00555">
        <ele>815.175797</ele>
        <time>2022-08-21T12:19:38.972Z</time>
      </trkpt>
      <trkpt lat="45.66727" lon="3.00513">
        <ele>816.939885</ele>
        <time>2022-08-21T12:20:01.990Z</time>
      </trkpt>
      <trkpt lat="45.66752" lon="3.00493">
        <ele>818.001159</ele>
        <time>2022-08-21T12:20:16.593Z</time>
      </trkpt>
      <trkpt lat="45.66751" lon="3.0047">
        <ele>818.614859</ele>
        <time>2022-08-21T12:20:25.143Z</time>
      </trkpt>
      <trkpt lat="45.66732" lon="3.00415">
        <ele>820.485632</ele>
        <time>2022-08-21T12:20:48.032Z</time>
      </trkpt>
      <trkpt lat="45.66712" lon="3.00391">
        <ele>821.787815</ele>
        <time>2022-08-21T12:21:01.790Z</time>
      </trkpt>
      <trkpt lat="45.66674" lon="3.00371">
        <ele>823.776118</ele>
        <time>2022-08-21T12:21:26.410Z</time>
      </trkpt>
      <trkpt lat="45.66638" lon="3.00318">
        <ele>826.379342</ele>
        <time>2022-08-21T12:21:57.449Z</time>
      </trkpt>
      <trkpt lat="45.66627" lon="3.00253">
        <ele>828.730474</ele>
        <time>2022-08-21T12:22:23.081Z</time>
      </trkpt>
      <trkpt lat="45.66629" lon="3.00232">
        <ele>829.508502</ele>
        <time>2022-08-21T12:22:31.438Z</time>
      </trkpt>
      <trkpt lat="45.66615" lon="3.00183">
        <ele>831.443863</ele>
        <time>2022-08-21T12:22:51.768Z</time>
      </trkpt>
      <trkpt lat="45.66633" lon="3.00152">
        <ele>832.919337</ele>
        <time>2022-08-21T12:23:02.620Z</time>
      </trkpt>
      <trkpt lat="45.66638" lon="3.00138">
        <ele>833.491475</ele>
        <time>2022-08-21T12:23:07.319Z</time>
      </trkpt>
      <trkpt lat="45.66657" lon="3.00091">
        <ele>835.49727</ele>
        <time>2022-08-21T12:23:25.933Z</time>
      </trkpt>
      <trkpt lat="45.66642" lon="3.00076">
        <ele>836.458069</ele>
        <time>2022-08-21T12:23:38.393Z</time>
      </trkpt>
      <trkpt lat="45.66629" lon="3.00001">
        <ele>839.671708</ele>
        <time>2022-08-21T12:24:12.471Z</time>
      </trkpt>
      <trkpt lat="45.66639" lon="2.9996">
        <ele>841.644531</ele>
        <time>2022-08-21T12:24:28.308Z</time>
      </trkpt>
      <trkpt lat="45.66639" lon="2.99882">
        <ele>845.213545</ele>
        <time>2022-08-21T12:25:04.451Z</time>
      </trkpt>
      <trkpt lat="45.66625" lon="2.99823">
        <ele>848.080752</ele>
        <time>2022-08-21T12:25:34.510Z</time>
      </trkpt>
      <trkpt lat="45.66633" lon="2.99761">
        <ele>851.047905</ele>
        <time>2022-08-21T12:26:04.220Z</time>
      </trkpt>
      <trkpt lat="45.66649" lon="2.99717">
        <ele>853.502739</ele>
        <time>2022-08-21T12:26:27.284Z</time>
      </trkpt>
      <trkpt lat="45.66634" lon="2.99665">
        <ele>856.26467</ele>
        <time>2022-08-21T12:26:52.694Z</time>
      </trkpt>
      <trkpt lat="45.6663" lon="2.99657">
        <ele>856.731387</ele>
        <time>2022-08-21T12:26:57.027Z</time>
      </trkpt>
      <trkpt lat="45.66615" lon="2.99624">
        <ele>858.630995</ele>
        <time>2022-08-21T12:27:15.079Z</time>
      </trkpt>
      <trkpt lat="45.66621" lon="2.99553">
        <ele>862.173524</ele>
        <time>2022-08-21T12:27:50.476Z</time>
      </trkpt>
      <trkpt lat="45.66614" lon="2.99519">
        <ele>863.557189</ele>
        <time>2022-08-21T12:28:06.460Z</time>
      </trkpt>
      <trkpt lat="45.66604" lon="2.99495">
        <ele>864.671031</ele>
        <time>2022-08-21T12:28:20.671Z</time>
      </trkpt>
      <trkpt lat="45.66534" lon="2.99438">
        <ele>869.212214</ele>
        <time>2022-08-21T12:29:09.555Z</time>
      </trkpt>
      <trkpt lat="45.66467" lon="2.99345">
        <ele>871.976794</ele>
        <time>2022-08-21T12:30:00.197Z</time>
      </trkpt>
      <trkpt lat="45.66455" lon="2.99298">
        <ele>871.549826</ele>
        <time>2022-08-21T12:30:12.680Z</time>
      </trkpt>
      <trkpt lat="45.66443" lon="2.99277">
        <ele>871.315101</ele>
        <time>2022-08-21T12:30:18.245Z</time>
      </trkpt>
      <trkpt lat="45.66404" lon="2.99229">
        <ele>870.689936</ele>
        <time>2022-08-21T12:30:31.197Z</time>
      </trkpt>
      <trkpt lat="45.66327" lon="2.99168">
        <ele>867.283652</ele>
        <time>2022-08-21T12:30:51.853Z</time>
      </trkpt>
      <trkpt lat="45.66272" lon="2.99146">
        <ele>863.888009</ele>
        <time>2022-08-21T12:31:05.277Z</time>
      </trkpt>
      <trkpt lat="45.66247" lon="2.99151">
        <ele>862.383548</ele>
        <time>2022-08-21T12:31:11.132Z</time>
      </trkpt>
      <trkpt lat="45.66208" lon="2.99184">
        <ele>859.70813</ele>
        <time>2022-08-21T12:31:21.583Z</time>
      </trkpt>
      <trkpt lat="45.66194" lon="2.99208">
        <ele>858.936444</ele>
        <time>2022-08-21T12:31:26.580Z</time>
      </trkpt>
      <trkpt lat="45.66154" lon="2.99246">
        <ele>857.394661</ele>
        <time>2022-08-21T12:31:37.745Z</time>
      </trkpt>
      <trkpt lat="45.66143" lon="2.99251">
        <ele>856.998063</ele>
        <time>2022-08-21T12:31:40.930Z</time>
      </trkpt>
      <trkpt lat="45.6609" lon="2.99248">
        <ele>855.311436</ele>
        <time>2022-08-21T12:31:55.386Z</time>
      </trkpt>
      <trkpt lat="45.66055" lon="2.99242">
        <ele>854.178369</ele>
        <time>2022-08-21T12:32:05.655Z</time>
      </trkpt>
      <trkpt lat="45.66041" lon="2.9923">
        <ele>853.831825</ele>
        <time>2022-08-21T12:32:10.487Z</time>
      </trkpt>
      <trkpt lat="45.66027" lon="2.99187">
        <ele>854.421666</ele>
        <time>2022-08-21T12:32:20.736Z</time>
      </trkpt>
      <trkpt lat="45.6604" lon="2.9916">
        <ele>854.84028</ele>
        <time>2022-08-21T12:32:30.125Z</time>
      </trkpt>
      <trkpt lat="45.66041" lon="2.99146">
        <ele>855.015647</ele>
        <time>2022-08-21T12:32:32.913Z</time>
      </trkpt>
      <trkpt lat="45.66027" lon="2.99086">
        <ele>855.806905</ele>
        <time>2022-08-21T12:32:51.263Z</time>
      </trkpt>
      <trkpt lat="45.66009" lon="2.9904">
        <ele>856.466425</ele>
        <time>2022-08-21T12:33:08.763Z</time>
      </trkpt>
      <trkpt lat="45.66008" lon="2.99016">
        <ele>856.779791</ele>
        <time>2022-08-21T12:33:18.821Z</time>
      </trkpt>
      <trkpt lat="45.6602" lon="2.98912">
        <ele>858.842376</ele>
        <time>2022-08-21T12:33:57.037Z</time>
      </trkpt>
      <trkpt lat="45.66002" lon="2.98835">
        <ele>860.561593</ele>
        <time>2022-08-21T12:34:22.761Z</time>
      </trkpt>
      <trkpt lat="45.65985" lon="2.988">
        <ele>861.454034</ele>
        <time>2022-08-21T12:34:34.190Z</time>
      </trkpt>
      <trkpt lat="45.65952" lon="2.98783">
        <ele>862.526719</ele>
        <time>2022-08-21T12:34:48.993Z</time>
      </trkpt>
      <trkpt lat="45.65906" lon="2.98769">
        <ele>864.52108</ele>
        <time>2022-08-21T12:35:11.805Z</time>
      </trkpt>
      <trkpt lat="45.65898" lon="2.98756">
        <ele>865.041646</ele>
        <time>2022-08-21T12:35:16.938Z</time>
      </trkpt>
      <trkpt lat="45.65891" lon="2.98713">
        <ele>866.322392</ele>
        <time>2022-08-21T12:35:33.858Z</time>
      </trkpt>
      <trkpt lat="45.65888" lon="2.98687">
        <ele>867.108424</ele>
        <time>2022-08-21T12:35:45.207Z</time>
      </trkpt>
      <trkpt lat="45.65878" lon="2.9866">
        <ele>868.02108</ele>
        <time>2022-08-21T12:35:57.644Z</time>
      </trkpt>
      <trkpt lat="45.65873" lon="2.98642">
        <ele>868.586352</ele>
        <time>2022-08-21T12:36:05.756Z</time>
      </trkpt>
      <trkpt lat="45.65875" lon="2.98611">
        <ele>869.492363</ele>
        <time>2022-08-21T12:36:17.437Z</time>
      </trkpt>
      <trkpt lat="45.65879" lon="2.98511">
        <ele>872.592822</ele>
        <time>2022-08-21T12:36:57.083Z</time>
      </trkpt>
      <trkpt lat="45.65895" lon="2.98465">
        <ele>874.179151</ele>
        <time>2022-08-21T12:37:20.124Z</time>
      </trkpt>
      <trkpt lat="45.65931" lon="2.98426">
        <ele>876.178112</ele>
        <time>2022-08-21T12:37:40.738Z</time>
      </trkpt>
      <trkpt lat="45.65954" lon="2.98364">
        <ele>877.953107</ele>
        <time>2022-08-21T12:37:58.040Z</time>
      </trkpt>
      <trkpt lat="45.65983" lon="2.98296">
        <ele>877.625087</ele>
        <time>2022-08-21T12:38:09.220Z</time>
      </trkpt>
      <trkpt lat="45.65988" lon="2.98269">
        <ele>877.509514</ele>
        <time>2022-08-21T12:38:12.523Z</time>
      </trkpt>
      <trkpt lat="45.66022" lon="2.98043">
        <ele>875.793387</ele>
        <time>2022-08-21T12:38:37.655Z</time>
      </trkpt>
      <trkpt lat="45.6602" lon="2.98021">
        <ele>875.520152</ele>
        <time>2022-08-21T12:38:39.986Z</time>
      </trkpt>
      <trkpt lat="45.65989" lon="2.97933">
        <ele>874.317628</ele>
        <time>2022-08-21T12:38:50.806Z</time>
      </trkpt>
      <trkpt lat="45.65982" lon="2.97899">
        <ele>873.88109</ele>
        <time>2022-08-21T12:38:54.966Z</time>
      </trkpt>
      <trkpt lat="45.65979" lon="2.97826">
        <ele>872.677209</ele>
        <time>2022-08-21T12:39:03.212Z</time>
      </trkpt>
      <trkpt lat="45.65956" lon="2.97703">
        <ele>870.514805</ele>
        <time>2022-08-21T12:39:17.395Z</time>
      </trkpt>
      <trkpt lat="45.65955" lon="2.97699">
        <ele>870.428662</ele>
        <time>2022-08-21T12:39:17.962Z</time>
      </trkpt>
      <trkpt lat="45.65951" lon="2.97563">
        <ele>865.603292</ele>
        <time>2022-08-21T12:39:30.847Z</time>
      </trkpt>
      <trkpt lat="45.65954" lon="2.97526">
        <ele>863.737917</ele>
        <time>2022-08-21T12:39:34.035Z</time>
      </trkpt>
      <trkpt lat="45.65973" lon="2.97477">
        <ele>860.961606</ele>
        <time>2022-08-21T12:39:38.772Z</time>
      </trkpt>
      <trkpt lat="45.65975" lon="2.97449">
        <ele>859.53188</ele>
        <time>2022-08-21T12:39:41.237Z</time>
      </trkpt>
      <trkpt lat="45.65981" lon="2.97443">
        <ele>859.001695</ele>
        <time>2022-08-21T12:39:42.098Z</time>
      </trkpt>
      <trkpt lat="45.66007" lon="2.97457">
        <ele>857.049948</ele>
        <time>2022-08-21T12:39:45.412Z</time>
      </trkpt>
      <trkpt lat="45.66023" lon="2.9746">
        <ele>855.839697</ele>
        <time>2022-08-21T12:39:47.404Z</time>
      </trkpt>
      <trkpt lat="45.66037" lon="2.97457">
        <ele>854.845221</ele>
        <time>2022-08-21T12:39:49.110Z</time>
      </trkpt>
      <trkpt lat="45.6605" lon="2.97446">
        <ele>853.708895</ele>
        <time>2022-08-21T12:39:50.999Z</time>
      </trkpt>
      <trkpt lat="45.66062" lon="2.97442">
        <ele>852.857501</ele>
        <time>2022-08-21T12:39:52.442Z</time>
      </trkpt>
      <trkpt lat="45.66077" lon="2.97443">
        <ele>851.747202</ele>
        <time>2022-08-21T12:39:54.389Z</time>
      </trkpt>
      <trkpt lat="45.66091" lon="2.97449">
        <ele>850.734733</ele>
        <time>2022-08-21T12:39:56.076Z</time>
      </trkpt>
      <trkpt lat="45.66101" lon="2.97461">
        <ele>849.71808</ele>
        <time>2022-08-21T12:39:57.829Z</time>
      </trkpt>
      <trkpt lat="45.66103" lon="2.9747">
        <ele>849.264294</ele>
        <time>2022-08-21T12:39:58.626Z</time>
      </trkpt>
      <trkpt lat="45.66107" lon="2.97499">
        <ele>847.772942</ele>
        <time>2022-08-21T12:40:01.117Z</time>
      </trkpt>
      <trkpt lat="45.66124" lon="2.97551">
        <ele>844.881515</ele>
        <time>2022-08-21T12:40:06.220Z</time>
      </trkpt>
      <trkpt lat="45.6613" lon="2.97565">
        <ele>844.017971</ele>
        <time>2022-08-21T12:40:07.846Z</time>
      </trkpt>
      <trkpt lat="45.66145" lon="2.97659">
        <ele>842.174504</ele>
        <time>2022-08-21T12:40:17.617Z</time>
      </trkpt>
      <trkpt lat="45.66157" lon="2.97719">
        <ele>841.222318</ele>
        <time>2022-08-21T12:40:24.639Z</time>
      </trkpt>
      <trkpt lat="45.66184" lon="2.9777">
        <ele>840.27422</ele>
        <time>2022-08-21T12:40:32.028Z</time>
      </trkpt>
      <trkpt lat="45.66225" lon="2.97827">
        <ele>839.504446</ele>
        <time>2022-08-21T12:40:41.802Z</time>
      </trkpt>
      <trkpt lat="45.66271" lon="2.97893">
        <ele>839.322423</ele>
        <time>2022-08-21T12:40:53.299Z</time>
      </trkpt>
      <trkpt lat="45.66275" lon="2.979">
        <ele>839.305097</ele>
        <time>2022-08-21T12:40:54.458Z</time>
      </trkpt>
      <trkpt lat="45.66286" lon="2.97918">
        <ele>839.257236</ele>
        <time>2022-08-21T12:40:57.584Z</time>
      </trkpt>
      <trkpt lat="45.66316" lon="2.97966">
        <ele>839.1323</ele>
        <time>2022-08-21T12:41:06.632Z</time>
      </trkpt>
      <trkpt lat="45.66341" lon="2.97989">
        <ele>839.112525</ele>
        <time>2022-08-21T12:41:12.807Z</time>
      </trkpt>
      <trkpt lat="45.66382" lon="2.98004">
        <ele>839.337909</ele>
        <time>2022-08-21T12:41:22.406Z</time>
      </trkpt>
      <trkpt lat="45.66385" lon="2.98012">
        <ele>839.371629</ele>
        <time>2022-08-21T12:41:23.978Z</time>
      </trkpt>
      <trkpt lat="45.66406" lon="2.98029">
        <ele>839.502321</ele>
        <time>2022-08-21T12:41:29.869Z</time>
      </trkpt>
      <trkpt lat="45.66435" lon="2.98038">
        <ele>839.656663</ele>
        <time>2022-08-21T12:41:37.036Z</time>
      </trkpt>
      <trkpt lat="45.66495" lon="2.98107">
        <ele>840.006807</ele>
        <time>2022-08-21T12:41:54.437Z</time>
      </trkpt>
      <trkpt lat="45.66528" lon="2.98184">
        <ele>839.848852</ele>
        <time>2022-08-21T12:42:08.086Z</time>
      </trkpt>
      <trkpt lat="45.66556" lon="2.98278">
        <ele>839.670933</ele>
        <time>2022-08-21T12:42:22.899Z</time>
      </trkpt>
      <trkpt lat="45.66576" lon="2.98315">
        <ele>839.590343</ele>
        <time>2022-08-21T12:42:29.062Z</time>
      </trkpt>
      <trkpt lat="45.66588" lon="2.98305">
        <ele>839.516187</ele>
        <time>2022-08-21T12:42:33.074Z</time>
      </trkpt>
      <trkpt lat="45.66605" lon="2.98325">
        <ele>839.363979</ele>
        <time>2022-08-21T12:42:37.882Z</time>
      </trkpt>
      <trkpt lat="45.66598" lon="2.98339">
        <ele>839.280893</ele>
        <time>2022-08-21T12:42:41.347Z</time>
      </trkpt>
      <trkpt lat="45.66605" lon="2.98347">
        <ele>839.223593</ele>
        <time>2022-08-21T12:42:43.754Z</time>
      </trkpt>
      <trkpt lat="45.66614" lon="2.98355">
        <ele>839.144133</ele>
        <time>2022-08-21T12:42:47.000Z</time>
      </trkpt>
      <trkpt lat="45.66622" lon="2.98345">
        <ele>839.070964</ele>
        <time>2022-08-21T12:42:50.063Z</time>
      </trkpt>
      <trkpt lat="45.66637" lon="2.98335">
        <ele>838.951226</ele>
        <time>2022-08-21T12:42:53.322Z</time>
      </trkpt>
      <trkpt lat="45.66651" lon="2.98335">
        <ele>838.855084</ele>
        <time>2022-08-21T12:42:55.879Z</time>
      </trkpt>
      <trkpt lat="45.66673" lon="2.98344">
        <ele>838.693074</ele>
        <time>2022-08-21T12:43:00.265Z</time>
      </trkpt>
      <trkpt lat="45.66685" lon="2.98359">
        <ele>838.578304</ele>
        <time>2022-08-21T12:43:03.378Z</time>
      </trkpt>
      <trkpt lat="45.66701" lon="2.98395">
        <ele>838.363988</ele>
        <time>2022-08-21T12:43:09.922Z</time>
      </trkpt>
      <trkpt lat="45.66729" lon="2.98429">
        <ele>838.425242</ele>
        <time>2022-08-21T12:43:17.450Z</time>
      </trkpt>
      <trkpt lat="45.66754" lon="2.98456">
        <ele>838.560118</ele>
        <time>2022-08-21T12:43:24.640Z</time>
      </trkpt>
      <trkpt lat="45.66789" lon="2.9848">
        <ele>838.722478</ele>
        <time>2022-08-21T12:43:32.939Z</time>
      </trkpt>
      <trkpt lat="45.66809" lon="2.98508">
        <ele>838.844226</ele>
        <time>2022-08-21T12:43:39.866Z</time>
      </trkpt>
      <trkpt lat="45.66867" lon="2.98571">
        <ele>839.581768</ele>
        <time>2022-08-21T12:44:06.552Z</time>
      </trkpt>
      <trkpt lat="45.66876" lon="2.98564">
        <ele>839.835503</ele>
        <time>2022-08-21T12:44:10.111Z</time>
      </trkpt>
      <trkpt lat="45.66922" lon="2.98634">
        <ele>841.627775</ele>
        <time>2022-08-21T12:44:28.627Z</time>
      </trkpt>
      <trkpt lat="45.66988" lon="2.98749">
        <ele>845.026256</ele>
        <time>2022-08-21T12:45:07.833Z</time>
      </trkpt>
      <trkpt lat="45.67002" lon="2.98785">
        <ele>846.729921</ele>
        <time>2022-08-21T12:45:21.788Z</time>
      </trkpt>
      <trkpt lat="45.67007" lon="2.98848">
        <ele>849.367016</ele>
        <time>2022-08-21T12:45:44.538Z</time>
      </trkpt>
      <trkpt lat="45.66993" lon="2.9889">
        <ele>851.266017</ele>
        <time>2022-08-21T12:46:01.724Z</time>
      </trkpt>
      <trkpt lat="45.66978" lon="2.98912">
        <ele>852.513678</ele>
        <time>2022-08-21T12:46:13.447Z</time>
      </trkpt>
      <trkpt lat="45.66969" lon="2.98929">
        <ele>853.427095</ele>
        <time>2022-08-21T12:46:21.069Z</time>
      </trkpt>
      <trkpt lat="45.66966" lon="2.98947">
        <ele>854.175415</ele>
        <time>2022-08-21T12:46:28.298Z</time>
      </trkpt>
      <trkpt lat="45.66969" lon="2.98974">
        <ele>854.998486</ele>
        <time>2022-08-21T12:46:37.810Z</time>
      </trkpt>
      <trkpt lat="45.66979" lon="2.98994">
        <ele>855.623064</ele>
        <time>2022-08-21T12:46:46.696Z</time>
      </trkpt>
      <trkpt lat="45.66993" lon="2.99005">
        <ele>856.226021</ele>
        <time>2022-08-21T12:46:54.115Z</time>
      </trkpt>
      <trkpt lat="45.66995" lon="2.99018">
        <ele>856.561615</ele>
        <time>2022-08-21T12:46:58.341Z</time>
      </trkpt>
      <trkpt lat="45.6701" lon="2.99028">
        <ele>857.196512</ele>
        <time>2022-08-21T12:47:08.287Z</time>
      </trkpt>
      <trkpt lat="45.67024" lon="2.99051">
        <ele>857.991697</ele>
        <time>2022-08-21T12:47:19.255Z</time>
      </trkpt>
      <trkpt lat="45.67098" lon="2.99135">
        <ele>861.235298</ele>
        <time>2022-08-21T12:47:58.925Z</time>
      </trkpt>
      <trkpt lat="45.67112" lon="2.99162">
        <ele>861.48252</ele>
        <time>2022-08-21T12:48:06.898Z</time>
      </trkpt>
      <trkpt lat="45.67111" lon="2.99173">
        <ele>861.562493</ele>
        <time>2022-08-21T12:48:09.439Z</time>
      </trkpt>
      <trkpt lat="45.6709" lon="2.99217">
        <ele>861.942486</ele>
        <time>2022-08-21T12:48:20.990Z</time>
      </trkpt>
      <trkpt lat="45.67096" lon="2.99248">
        <ele>862.179263</ele>
        <time>2022-08-21T12:48:28.728Z</time>
      </trkpt>
      <trkpt lat="45.67081" lon="2.99305">
        <ele>862.613882</ele>
        <time>2022-08-21T12:48:44.799Z</time>
      </trkpt>
      <trkpt lat="45.6708" lon="2.9934">
        <ele>862.868913</ele>
        <time>2022-08-21T12:48:54.266Z</time>
      </trkpt>
      <trkpt lat="45.6712" lon="2.99327">
        <ele>863.323619</ele>
        <time>2022-08-21T12:49:11.281Z</time>
      </trkpt>
      <trkpt lat="45.67166" lon="2.99284">
        <ele>863.94152</ele>
        <time>2022-08-21T12:49:33.235Z</time>
      </trkpt>
      <trkpt lat="45.67229" lon="2.99197">
        <ele>864.929976</ele>
        <time>2022-08-21T12:50:06.080Z</time>
      </trkpt>
      <trkpt lat="45.67303" lon="2.99325">
        <ele>863.897542</ele>
        <time>2022-08-21T12:50:41.168Z</time>
      </trkpt>
      <trkpt lat="45.67309" lon="2.99358">
        <ele>863.648784</ele>
        <time>2022-08-21T12:50:47.688Z</time>
      </trkpt>
      <trkpt lat="45.67317" lon="2.99422">
        <ele>863.169786</ele>
        <time>2022-08-21T12:50:59.940Z</time>
      </trkpt>
      <trkpt lat="45.67338" lon="2.99413">
        <ele>862.795404</ele>
        <time>2022-08-21T12:51:05.705Z</time>
      </trkpt>
      <trkpt lat="45.67343" lon="2.99396">
        <ele>862.543806</ele>
        <time>2022-08-21T12:51:07.774Z</time>
      </trkpt>
      <trkpt lat="45.67389" lon="2.99351">
        <ele>861.505426</ele>
        <time>2022-08-21T12:51:22.931Z</time>
      </trkpt>
      <trkpt lat="45.67396" lon="2.99411">
        <ele>860.711486</ele>
        <time>2022-08-21T12:51:34.667Z</time>
      </trkpt>
      <trkpt lat="45.67414" lon="2.99476">
        <ele>859.792623</ele>
        <time>2022-08-21T12:51:48.347Z</time>
      </trkpt>
      <trkpt lat="45.67398" lon="2.99651">
        <ele>858.518492</ele>
        <time>2022-08-21T12:52:23.787Z</time>
      </trkpt>
      <trkpt lat="45.67405" lon="2.99701">
        <ele>858.156074</ele>
        <time>2022-08-21T12:52:34.381Z</time>
      </trkpt>
      <trkpt lat="45.67389" lon="2.99744">
        <ele>858.178884</ele>
        <time>2022-08-21T12:52:40.936Z</time>
      </trkpt>
      <trkpt lat="45.67424" lon="2.99763">
        <ele>858.956222</ele>
        <time>2022-08-21T12:52:53.276Z</time>
      </trkpt>
      <trkpt lat="45.67435" lon="2.99782">
        <ele>859.320001</ele>
        <time>2022-08-21T12:52:59.309Z</time>
      </trkpt>
      <trkpt lat="45.6744" lon="2.99803">
        <ele>859.639213</ele>
        <time>2022-08-21T12:53:05.052Z</time>
      </trkpt>
      <trkpt lat="45.67438" lon="2.99845">
        <ele>860.245494</ele>
        <time>2022-08-21T12:53:17.704Z</time>
      </trkpt>
      <trkpt lat="45.67446" lon="2.99851">
        <ele>860.442684</ele>
        <time>2022-08-21T12:53:22.556Z</time>
      </trkpt>
      <trkpt lat="45.6746" lon="2.9985">
        <ele>860.722265</ele>
        <time>2022-08-21T12:53:29.545Z</time>
      </trkpt>
      <trkpt lat="45.67537" lon="2.99786">
        <ele>864.919865</ele>
        <time>2022-08-21T12:54:16.055Z</time>
      </trkpt>
      <trkpt lat="45.67568" lon="2.99767">
        <ele>867.426969</ele>
        <time>2022-08-21T12:54:38.814Z</time>
      </trkpt>
      <trkpt lat="45.67594" lon="2.99769">
        <ele>869.343771</ele>
        <time>2022-08-21T12:54:58.599Z</time>
      </trkpt>
      <trkpt lat="45.67634" lon="2.9981">
        <ele>873.060961</ele>
        <time>2022-08-21T12:55:37.597Z</time>
      </trkpt>
      <trkpt lat="45.67664" lon="2.99813">
        <ele>875.310675</ele>
        <time>2022-08-21T12:56:00.681Z</time>
      </trkpt>
      <trkpt lat="45.67672" lon="2.99823">
        <ele>876.113333</ele>
        <time>2022-08-21T12:56:10.630Z</time>
      </trkpt>
      <trkpt lat="45.67697" lon="2.99807">
        <ele>878.297444</ele>
        <time>2022-08-21T12:56:28.309Z</time>
      </trkpt>
      <trkpt lat="45.67789" lon="2.99803">
        <ele>885.472963</ele>
        <time>2022-08-21T12:57:24.047Z</time>
      </trkpt>
      <trkpt lat="45.67749" lon="2.99913">
        <ele>891.127284</ele>
        <time>2022-08-21T12:58:09.105Z</time>
      </trkpt>
      <trkpt lat="45.67733" lon="2.99996">
        <ele>894.158009</ele>
        <time>2022-08-21T12:58:33.497Z</time>
      </trkpt>
      <trkpt lat="45.67729" lon="3.00051">
        <ele>896.089314</ele>
        <time>2022-08-21T12:58:48.121Z</time>
      </trkpt>
      <trkpt lat="45.67736" lon="3.00099">
        <ele>897.796558</ele>
        <time>2022-08-21T12:59:02.610Z</time>
      </trkpt>
      <trkpt lat="45.67737" lon="3.00147">
        <ele>900.32184</ele>
        <time>2022-08-21T12:59:18.827Z</time>
      </trkpt>
      <trkpt lat="45.67735" lon="3.00254">
        <ele>906.327673</ele>
        <time>2022-08-21T13:00:01.233Z</time>
      </trkpt>
      <trkpt lat="45.67805" lon="3.00288">
        <ele>912.347005</ele>
        <time>2022-08-21T13:01:00.854Z</time>
      </trkpt>
      <trkpt lat="45.67856" lon="3.00311">
        <ele>918.209331</ele>
        <time>2022-08-21T13:01:48.885Z</time>
      </trkpt>
      <trkpt lat="45.67868" lon="3.0033">
        <ele>920.237043</ele>
        <time>2022-08-21T13:02:05.288Z</time>
      </trkpt>
      <trkpt lat="45.67924" lon="3.00367">
        <ele>927.123926</ele>
        <time>2022-08-21T13:03:00.541Z</time>
      </trkpt>
      <trkpt lat="45.67956" lon="3.0038">
        <ele>930.790737</ele>
        <time>2022-08-21T13:03:29.659Z</time>
      </trkpt>
      <trkpt lat="45.68" lon="3.00363">
        <ele>935.431864</ele>
        <time>2022-08-21T13:04:09.823Z</time>
      </trkpt>
      <trkpt lat="45.68079" lon="3.00419">
        <ele>943.882811</ele>
        <time>2022-08-21T13:05:21.966Z</time>
      </trkpt>
      <trkpt lat="45.68149" lon="3.00455">
        <ele>950.822353</ele>
        <time>2022-08-21T13:06:15.606Z</time>
      </trkpt>
      <trkpt lat="45.68207" lon="3.00502">
        <ele>956.175344</ele>
        <time>2022-08-21T13:07:04.018Z</time>
      </trkpt>
      <trkpt lat="45.68228" lon="3.00501">
        <ele>957.919981</ele>
        <time>2022-08-21T13:07:20.151Z</time>
      </trkpt>
      <trkpt lat="45.68346" lon="3.00547">
        <ele>967.72552</ele>
        <time>2022-08-21T13:08:45.879Z</time>
      </trkpt>
      <trkpt lat="45.68378" lon="3.00552">
        <ele>970.282439</ele>
        <time>2022-08-21T13:09:11.739Z</time>
      </trkpt>
      <trkpt lat="45.6844" lon="3.0062">
        <ele>976.394572</ele>
        <time>2022-08-21T13:10:08.122Z</time>
      </trkpt>
      <trkpt lat="45.68484" lon="3.00611">
        <ele>979.451289</ele>
        <time>2022-08-21T13:10:38.771Z</time>
      </trkpt>
      <trkpt lat="45.68506" lon="3.00622">
        <ele>980.52943</ele>
        <time>2022-08-21T13:10:52.843Z</time>
      </trkpt>
      <trkpt lat="45.68597" lon="3.00702">
        <ele>985.502817</ele>
        <time>2022-08-21T13:11:52.444Z</time>
      </trkpt>
      <trkpt lat="45.68642" lon="3.00698">
        <ele>987.263732</ele>
        <time>2022-08-21T13:12:12.308Z</time>
      </trkpt>
      <trkpt lat="45.68658" lon="3.0069">
        <ele>987.51581</ele>
        <time>2022-08-21T13:12:18.852Z</time>
      </trkpt>
      <trkpt lat="45.68898" lon="3.00554">
        <ele>989.646481</ele>
        <time>2022-08-21T13:13:55.003Z</time>
      </trkpt>
      <trkpt lat="45.68939" lon="3.00537">
        <ele>989.622126</ele>
        <time>2022-08-21T13:14:08.344Z</time>
      </trkpt>
      <trkpt lat="45.68976" lon="3.00534">
        <ele>989.295078</ele>
        <time>2022-08-21T13:14:18.674Z</time>
      </trkpt>
      <trkpt lat="45.69051" lon="3.00558">
        <ele>985.580573</ele>
        <time>2022-08-21T13:14:37.741Z</time>
      </trkpt>
      <trkpt lat="45.69087" lon="3.00558">
        <ele>983.8391</ele>
        <time>2022-08-21T13:14:46.106Z</time>
      </trkpt>
      <trkpt lat="45.69213" lon="3.00478">
        <ele>975.775057</ele>
        <time>2022-08-21T13:15:18.052Z</time>
      </trkpt>
      <trkpt lat="45.69294" lon="3.00382">
        <ele>968.770665</ele>
        <time>2022-08-21T13:15:41.911Z</time>
      </trkpt>
      <trkpt lat="45.69325" lon="3.00321">
        <ele>964.597446</ele>
        <time>2022-08-21T13:15:53.998Z</time>
      </trkpt>
      <trkpt lat="45.69346" lon="3.00218">
        <ele>958.661289</ele>
        <time>2022-08-21T13:16:11.163Z</time>
      </trkpt>
      <trkpt lat="45.69411" lon="3.00244">
        <ele>952.54907</ele>
        <time>2022-08-21T13:16:25.629Z</time>
      </trkpt>
      <trkpt lat="45.6945" lon="3.00244">
        <ele>947.606129</ele>
        <time>2022-08-21T13:16:33.723Z</time>
      </trkpt>
      <trkpt lat="45.6954" lon="3.00262">
        <ele>936.215967</ele>
        <time>2022-08-21T13:16:52.478Z</time>
      </trkpt>
      <trkpt lat="45.69572" lon="3.00252">
        <ele>932.117506</ele>
        <time>2022-08-21T13:16:59.267Z</time>
      </trkpt>
      <trkpt lat="45.69584" lon="3.00254">
        <ele>930.296073</ele>
        <time>2022-08-21T13:17:01.926Z</time>
      </trkpt>
      <trkpt lat="45.69628" lon="3.00309">
        <ele>921.801477</ele>
        <time>2022-08-21T13:17:13.498Z</time>
      </trkpt>
      <trkpt lat="45.69651" lon="3.00358">
        <ele>915.82209</ele>
        <time>2022-08-21T13:17:21.748Z</time>
      </trkpt>
      <trkpt lat="45.69663" lon="3.00371">
        <ele>913.683716</ele>
        <time>2022-08-21T13:17:24.716Z</time>
      </trkpt>
      <trkpt lat="45.69696" lon="3.00372">
        <ele>908.776651</ele>
        <time>2022-08-21T13:17:31.650Z</time>
      </trkpt>
      <trkpt lat="45.6971" lon="3.0038">
        <ele>906.655093</ele>
        <time>2022-08-21T13:17:34.639Z</time>
      </trkpt>
      <trkpt lat="45.69734" lon="3.004">
        <ele>903.200554</ele>
        <time>2022-08-21T13:17:38.218Z</time>
      </trkpt>
      <trkpt lat="45.69779" lon="3.00478">
        <ele>895.188657</ele>
        <time>2022-08-21T13:17:46.960Z</time>
      </trkpt>
      <trkpt lat="45.69804" lon="3.00506">
        <ele>891.496659</ele>
        <time>2022-08-21T13:17:50.948Z</time>
      </trkpt>
      <trkpt lat="45.69902" lon="3.00489">
        <ele>880.644583</ele>
        <time>2022-08-21T13:18:03.388Z</time>
      </trkpt>
      <trkpt lat="45.69927" lon="3.0049">
        <ele>878.045065</ele>
        <time>2022-08-21T13:18:06.518Z</time>
      </trkpt>
      <trkpt lat="45.69938" lon="3.00495">
        <ele>876.885248</ele>
        <time>2022-08-21T13:18:07.966Z</time>
      </trkpt>
      <trkpt lat="45.69959" lon="3.0052">
        <ele>874.063015</ele>
        <time>2022-08-21T13:18:11.345Z</time>
      </trkpt>
      <trkpt lat="45.6996" lon="3.00534">
        <ele>873.048794</ele>
        <time>2022-08-21T13:18:12.636Z</time>
      </trkpt>
      <trkpt lat="45.69968" lon="3.00539">
        <ele>872.132126</ele>
        <time>2022-08-21T13:18:13.715Z</time>
      </trkpt>
      <trkpt lat="45.70012" lon="3.00513">
        <ele>867.167547</ele>
        <time>2022-08-21T13:18:19.782Z</time>
      </trkpt>
      <trkpt lat="45.70027" lon="3.00514">
        <ele>865.91154</ele>
        <time>2022-08-21T13:18:21.809Z</time>
      </trkpt>
      <trkpt lat="45.70038" lon="3.00521">
        <ele>865.126624</ele>
        <time>2022-08-21T13:18:23.257Z</time>
      </trkpt>
      <trkpt lat="45.70048" lon="3.00527">
        <ele>864.361206</ele>
        <time>2022-08-21T13:18:24.738Z</time>
      </trkpt>
      <trkpt lat="45.70081" lon="3.0053">
        <ele>862.184382</ele>
        <time>2022-08-21T13:18:28.943Z</time>
      </trkpt>
      <trkpt lat="45.70088" lon="3.00635">
        <ele>857.240136</ele>
        <time>2022-08-21T13:18:38.532Z</time>
      </trkpt>
      <trkpt lat="45.70078" lon="3.00828">
        <ele>850.384302</ele>
        <time>2022-08-21T13:18:57.056Z</time>
      </trkpt>
      <trkpt lat="45.70078" lon="3.00935">
        <ele>847.114857</ele>
        <time>2022-08-21T13:19:07.361Z</time>
      </trkpt>
      <trkpt lat="45.70072" lon="3.0097">
        <ele>846.06367</ele>
        <time>2022-08-21T13:19:12.087Z</time>
      </trkpt>
      <trkpt lat="45.7007" lon="3.01039">
        <ele>844.142757</ele>
        <time>2022-08-21T13:19:20.999Z</time>
      </trkpt>
      <trkpt lat="45.70074" lon="3.01083">
        <ele>842.918858</ele>
        <time>2022-08-21T13:19:26.686Z</time>
      </trkpt>
      <trkpt lat="45.70113" lon="3.01166">
        <ele>840.143677</ele>
        <time>2022-08-21T13:19:40.151Z</time>
      </trkpt>
      <trkpt lat="45.70145" lon="3.01201">
        <ele>838.902868</ele>
        <time>2022-08-21T13:19:48.605Z</time>
      </trkpt>
      <trkpt lat="45.7026" lon="3.01429">
        <ele>833.32794</ele>
        <time>2022-08-21T13:20:18.753Z</time>
      </trkpt>
      <trkpt lat="45.70364" lon="3.01634">
        <ele>824.64561</ele>
        <time>2022-08-21T13:20:41.970Z</time>
      </trkpt>
      <trkpt lat="45.7039" lon="3.01689">
        <ele>821.979599</ele>
        <time>2022-08-21T13:20:47.913Z</time>
      </trkpt>
      <trkpt lat="45.70425" lon="3.01758">
        <ele>818.610386</ele>
        <time>2022-08-21T13:20:55.600Z</time>
      </trkpt>
      <trkpt lat="45.70432" lon="3.01773">
        <ele>817.897386</ele>
        <time>2022-08-21T13:20:57.258Z</time>
      </trkpt>
      <trkpt lat="45.70442" lon="3.01802">
        <ele>816.63168</ele>
        <time>2022-08-21T13:21:00.238Z</time>
      </trkpt>
      <trkpt lat="45.70445" lon="3.01825">
        <ele>815.96243</ele>
        <time>2022-08-21T13:21:02.457Z</time>
      </trkpt>
      <trkpt lat="45.70445" lon="3.01839">
        <ele>815.574018</ele>
        <time>2022-08-21T13:21:03.880Z</time>
      </trkpt>
      <trkpt lat="45.70458" lon="3.01857">
        <ele>814.877196</ele>
        <time>2022-08-21T13:21:06.406Z</time>
      </trkpt>
      <trkpt lat="45.70465" lon="3.01857">
        <ele>814.621702</ele>
        <time>2022-08-21T13:21:07.364Z</time>
      </trkpt>
      <trkpt lat="45.70476" lon="3.0187">
        <ele>814.105286</ele>
        <time>2022-08-21T13:21:09.288Z</time>
      </trkpt>
      <trkpt lat="45.70486" lon="3.01882">
        <ele>813.601373</ele>
        <time>2022-08-21T13:21:11.138Z</time>
      </trkpt>
      <trkpt lat="45.70497" lon="3.01905">
        <ele>812.867754</ele>
        <time>2022-08-21T13:21:13.914Z</time>
      </trkpt>
      <trkpt lat="45.70544" lon="3.02004">
        <ele>809.739754</ele>
        <time>2022-08-21T13:21:25.847Z</time>
      </trkpt>
      <trkpt lat="45.70557" lon="3.02054">
        <ele>808.528931</ele>
        <time>2022-08-21T13:21:31.376Z</time>
      </trkpt>
      <trkpt lat="45.70574" lon="3.02118">
        <ele>806.993507</ele>
        <time>2022-08-21T13:21:38.318Z</time>
      </trkpt>
      <trkpt lat="45.7058" lon="3.02142">
        <ele>806.423705</ele>
        <time>2022-08-21T13:21:40.841Z</time>
      </trkpt>
      <trkpt lat="45.70613" lon="3.02277">
        <ele>803.47038</ele>
        <time>2022-08-21T13:21:54.851Z</time>
      </trkpt>
      <trkpt lat="45.70622" lon="3.02363">
        <ele>802.23229</ele>
        <time>2022-08-21T13:22:04.261Z</time>
      </trkpt>
      <trkpt lat="45.70624" lon="3.0245">
        <ele>800.995435</ele>
        <time>2022-08-21T13:22:13.843Z</time>
      </trkpt>
      <trkpt lat="45.70635" lon="3.02454">
        <ele>800.776088</ele>
        <time>2022-08-21T13:22:16.181Z</time>
      </trkpt>
      <trkpt lat="45.7064" lon="3.02463">
        <ele>800.615088</ele>
        <time>2022-08-21T13:22:17.387Z</time>
      </trkpt>
      <trkpt lat="45.70674" lon="3.02612">
        <ele>800.027298</ele>
        <time>2022-08-21T13:22:35.541Z</time>
      </trkpt>
      <trkpt lat="45.7067" lon="3.02657">
        <ele>799.947266</ele>
        <time>2022-08-21T13:22:43.047Z</time>
      </trkpt>
      <trkpt lat="45.70674" lon="3.02762">
        <ele>800.144963</ele>
        <time>2022-08-21T13:23:00.092Z</time>
      </trkpt>
      <trkpt lat="45.70687" lon="3.0281">
        <ele>800.833221</ele>
        <time>2022-08-21T13:23:09.289Z</time>
      </trkpt>
      <trkpt lat="45.70713" lon="3.02848">
        <ele>801.549643</ele>
        <time>2022-08-21T13:23:20.151Z</time>
      </trkpt>
      <trkpt lat="45.70778" lon="3.02891">
        <ele>802.920717</ele>
        <time>2022-08-21T13:23:45.224Z</time>
      </trkpt>
      <trkpt lat="45.70813" lon="3.02931">
        <ele>803.349871</ele>
        <time>2022-08-21T13:23:59.935Z</time>
      </trkpt>
      <trkpt lat="45.70825" lon="3.02943">
        <ele>803.39597</ele>
        <time>2022-08-21T13:24:04.715Z</time>
      </trkpt>
      <trkpt lat="45.70831" lon="3.02963">
        <ele>803.442396</ele>
        <time>2022-08-21T13:24:08.279Z</time>
      </trkpt>
      <trkpt lat="45.7082" lon="3.02994">
        <ele>803.516951</ele>
        <time>2022-08-21T13:24:14.314Z</time>
      </trkpt>
      <trkpt lat="45.7077" lon="3.03081">
        <ele>803.761172</ele>
        <time>2022-08-21T13:24:29.533Z</time>
      </trkpt>
      <trkpt lat="45.70757" lon="3.03119">
        <ele>803.596227</ele>
        <time>2022-08-21T13:24:34.587Z</time>
      </trkpt>
      <trkpt lat="45.70722" lon="3.0319">
        <ele>802.124116</ele>
        <time>2022-08-21T13:24:43.934Z</time>
      </trkpt>
      <trkpt lat="45.7069" lon="3.03236">
        <ele>801.028014</ele>
        <time>2022-08-21T13:24:50.680Z</time>
      </trkpt>
      <trkpt lat="45.70691" lon="3.03256">
        <ele>800.673675</ele>
        <time>2022-08-21T13:24:52.847Z</time>
      </trkpt>
      <trkpt lat="45.70709" lon="3.03304">
        <ele>799.75725</ele>
        <time>2022-08-21T13:24:58.871Z</time>
      </trkpt>
      <trkpt lat="45.70715" lon="3.03345">
        <ele>799.607</ele>
        <time>2022-08-21T13:25:03.978Z</time>
      </trkpt>
      <trkpt lat="45.70712" lon="3.03404">
        <ele>800.003958</ele>
        <time>2022-08-21T13:25:12.008Z</time>
      </trkpt>
      <trkpt lat="45.7071" lon="3.03451">
        <ele>800.320521</ele>
        <time>2022-08-21T13:25:19.961Z</time>
      </trkpt>
      <trkpt lat="45.7072" lon="3.0348">
        <ele>800.53939</ele>
        <time>2022-08-21T13:25:26.300Z</time>
      </trkpt>
      <trkpt lat="45.70722" lon="3.03484">
        <ele>800.567419</ele>
        <time>2022-08-21T13:25:27.132Z</time>
      </trkpt>
      <trkpt lat="45.70735" lon="3.03511">
        <ele>800.78888</ele>
        <time>2022-08-21T13:25:35.501Z</time>
      </trkpt>
      <trkpt lat="45.70754" lon="3.03578">
        <ele>801.413884</ele>
        <time>2022-08-21T13:25:51.684Z</time>
      </trkpt>
      <trkpt lat="45.70751" lon="3.03615">
        <ele>802.021638</ele>
        <time>2022-08-21T13:26:01.202Z</time>
      </trkpt>
      <trkpt lat="45.70803" lon="3.0371">
        <ele>803.989857</ele>
        <time>2022-08-21T13:26:32.094Z</time>
      </trkpt>
      <trkpt lat="45.70824" lon="3.03759">
        <ele>804.929824</ele>
        <time>2022-08-21T13:26:43.462Z</time>
      </trkpt>
      <trkpt lat="45.70838" lon="3.03775">
        <ele>805.355747</ele>
        <time>2022-08-21T13:26:48.239Z</time>
      </trkpt>
      <trkpt lat="45.70906" lon="3.03835">
        <ele>803.554932</ele>
        <time>2022-08-21T13:27:13.340Z</time>
      </trkpt>
      <trkpt lat="45.71214" lon="3.04316">
        <ele>790.999417</ele>
        <time>2022-08-21T13:29:11.481Z</time>
      </trkpt>
      <trkpt lat="45.71226" lon="3.04345">
        <ele>789.922253</ele>
        <time>2022-08-21T13:29:14.819Z</time>
      </trkpt>
      <trkpt lat="45.71227" lon="3.04374">
        <ele>788.901902</ele>
        <time>2022-08-21T13:29:17.787Z</time>
      </trkpt>
      <trkpt lat="45.7123" lon="3.04411">
        <ele>787.624781</ele>
        <time>2022-08-21T13:29:21.298Z</time>
      </trkpt>
      <trkpt lat="45.71247" lon="3.04481">
        <ele>785.056089</ele>
        <time>2022-08-21T13:29:28.468Z</time>
      </trkpt>
      <trkpt lat="45.71261" lon="3.04513">
        <ele>783.758843</ele>
        <time>2022-08-21T13:29:32.106Z</time>
      </trkpt>
      <trkpt lat="45.71285" lon="3.04548">
        <ele>782.055324</ele>
        <time>2022-08-21T13:29:36.945Z</time>
      </trkpt>
      <trkpt lat="45.71325" lon="3.04624">
        <ele>780.366492</ele>
        <time>2022-08-21T13:29:47.084Z</time>
      </trkpt>
      <trkpt lat="45.7135" lon="3.04628">
        <ele>779.760611</ele>
        <time>2022-08-21T13:29:52.677Z</time>
      </trkpt>
      <trkpt lat="45.71359" lon="3.04654">
        <ele>779.284757</ele>
        <time>2022-08-21T13:29:56.922Z</time>
      </trkpt>
      <trkpt lat="45.71377" lon="3.04685">
        <ele>778.610634</ele>
        <time>2022-08-21T13:30:03.009Z</time>
      </trkpt>
      <trkpt lat="45.71417" lon="3.04734">
        <ele>777.416686</ele>
        <time>2022-08-21T13:30:14.729Z</time>
      </trkpt>
      <trkpt lat="45.71429" lon="3.04742">
        <ele>777.187693</ele>
        <time>2022-08-21T13:30:17.831Z</time>
      </trkpt>
      <trkpt lat="45.71439" lon="3.04745">
        <ele>777.02195</ele>
        <time>2022-08-21T13:30:19.615Z</time>
      </trkpt>
      <trkpt lat="45.71444" lon="3.04773">
        <ele>776.681267</ele>
        <time>2022-08-21T13:30:24.149Z</time>
      </trkpt>
      <trkpt lat="45.71441" lon="3.0478">
        <ele>776.587113</ele>
        <time>2022-08-21T13:30:25.089Z</time>
      </trkpt>
      <trkpt lat="45.71453" lon="3.04819">
        <ele>776.089698</ele>
        <time>2022-08-21T13:30:30.369Z</time>
      </trkpt>
      <trkpt lat="45.71581" lon="3.05065">
        <ele>771.216673</ele>
        <time>2022-08-21T13:31:04.631Z</time>
      </trkpt>
      <trkpt lat="45.71603" lon="3.05086">
        <ele>770.514726</ele>
        <time>2022-08-21T13:31:08.545Z</time>
      </trkpt>
      <trkpt lat="45.71608" lon="3.05112">
        <ele>769.99892</ele>
        <time>2022-08-21T13:31:11.445Z</time>
      </trkpt>
      <trkpt lat="45.7165" lon="3.05167">
        <ele>768.851086</ele>
        <time>2022-08-21T13:31:20.002Z</time>
      </trkpt>
      <trkpt lat="45.71716" lon="3.05304">
        <ele>766.680689</ele>
        <time>2022-08-21T13:31:40.204Z</time>
      </trkpt>
      <trkpt lat="45.7173" lon="3.05317">
        <ele>766.367109</ele>
        <time>2022-08-21T13:31:43.067Z</time>
      </trkpt>
      <trkpt lat="45.71756" lon="3.05349">
        <ele>765.702352</ele>
        <time>2022-08-21T13:31:49.098Z</time>
      </trkpt>
      <trkpt lat="45.7176" lon="3.05372">
        <ele>765.384472</ele>
        <time>2022-08-21T13:31:54.241Z</time>
      </trkpt>
      <trkpt lat="45.71807" lon="3.0545">
        <ele>763.974075</ele>
        <time>2022-08-21T13:32:14.971Z</time>
      </trkpt>
      <trkpt lat="45.7184" lon="3.05505">
        <ele>762.981206</ele>
        <time>2022-08-21T13:32:28.608Z</time>
      </trkpt>
      <trkpt lat="45.71858" lon="3.05569">
        <ele>759.955819</ele>
        <time>2022-08-21T13:32:40.634Z</time>
      </trkpt>
      <trkpt lat="45.71924" lon="3.05735">
        <ele>750.390764</ele>
        <time>2022-08-21T13:33:10.405Z</time>
      </trkpt>
      <trkpt lat="45.71949" lon="3.05805">
        <ele>743.42155</ele>
        <time>2022-08-21T13:33:22.108Z</time>
      </trkpt>
      <trkpt lat="45.71969" lon="3.0588">
        <ele>736.019572</ele>
        <time>2022-08-21T13:33:33.544Z</time>
      </trkpt>
      <trkpt lat="45.71967" lon="3.0591">
        <ele>733.137954</ele>
        <time>2022-08-21T13:33:37.941Z</time>
      </trkpt>
      <trkpt lat="45.71962" lon="3.05985">
        <ele>726.18661</ele>
        <time>2022-08-21T13:33:48.534Z</time>
      </trkpt>
      <trkpt lat="45.71967" lon="3.06035">
        <ele>719.097527</ele>
        <time>2022-08-21T13:33:55.537Z</time>
      </trkpt>
      <trkpt lat="45.71977" lon="3.06052">
        <ele>716.027629</ele>
        <time>2022-08-21T13:33:58.483Z</time>
      </trkpt>
      <trkpt lat="45.72008" lon="3.06081">
        <ele>708.451051</ele>
        <time>2022-08-21T13:34:05.777Z</time>
      </trkpt>
      <trkpt lat="45.72032" lon="3.0612">
        <ele>700.976133</ele>
        <time>2022-08-21T13:34:12.999Z</time>
      </trkpt>
      <trkpt lat="45.72038" lon="3.06139">
        <ele>698.039297</ele>
        <time>2022-08-21T13:34:15.847Z</time>
      </trkpt>
      <trkpt lat="45.72003" lon="3.06242">
        <ele>682.508231</ele>
        <time>2022-08-21T13:34:31.425Z</time>
      </trkpt>
      <trkpt lat="45.72034" lon="3.06293">
        <ele>674.055725</ele>
        <time>2022-08-21T13:34:40.666Z</time>
      </trkpt>
      <trkpt lat="45.72048" lon="3.06302">
        <ele>671.250137</ele>
        <time>2022-08-21T13:34:43.680Z</time>
      </trkpt>
      <trkpt lat="45.72046" lon="3.06307">
        <ele>670.45524</ele>
        <time>2022-08-21T13:34:44.537Z</time>
      </trkpt>
      <trkpt lat="45.72087" lon="3.0633">
        <ele>662.48652</ele>
        <time>2022-08-21T13:34:53.445Z</time>
      </trkpt>
      <trkpt lat="45.72129" lon="3.06336">
        <ele>656.143883</ele>
        <time>2022-08-21T13:35:02.289Z</time>
      </trkpt>
      <trkpt lat="45.72181" lon="3.06336">
        <ele>652.805871</ele>
        <time>2022-08-21T13:35:13.602Z</time>
      </trkpt>
      <trkpt lat="45.72151" lon="3.06366">
        <ele>650.512221</ele>
        <time>2022-08-21T13:35:21.958Z</time>
      </trkpt>
      <trkpt lat="45.72092" lon="3.06389">
        <ele>646.537935</ele>
        <time>2022-08-21T13:35:37.882Z</time>
      </trkpt>
      <trkpt lat="45.72088" lon="3.064">
        <ele>645.973022</ele>
        <time>2022-08-21T13:35:40.408Z</time>
      </trkpt>
      <trkpt lat="45.72151" lon="3.06406">
        <ele>640.647512</ele>
        <time>2022-08-21T13:35:56.840Z</time>
      </trkpt>
      <trkpt lat="45.72211" lon="3.06384">
        <ele>635.114665</ele>
        <time>2022-08-21T13:36:10.913Z</time>
      </trkpt>
      <trkpt lat="45.72224" lon="3.06393">
        <ele>633.903142</ele>
        <time>2022-08-21T13:36:13.660Z</time>
      </trkpt>
      <trkpt lat="45.7218" lon="3.0648">
        <ele>625.737232</ele>
        <time>2022-08-21T13:36:28.825Z</time>
      </trkpt>
      <trkpt lat="45.72188" lon="3.06504">
        <ele>622.950068</ele>
        <time>2022-08-21T13:36:32.593Z</time>
      </trkpt>
      <trkpt lat="45.7221" lon="3.06531">
        <ele>618.36945</ele>
        <time>2022-08-21T13:36:38.474Z</time>
      </trkpt>
      <trkpt lat="45.72213" lon="3.0659">
        <ele>611.974652</ele>
        <time>2022-08-21T13:36:43.465Z</time>
      </trkpt>
      <trkpt lat="45.72219" lon="3.06605">
        <ele>610.043056</ele>
        <time>2022-08-21T13:36:44.941Z</time>
      </trkpt>
      <trkpt lat="45.72327" lon="3.06656">
        <ele>594.530719</ele>
        <time>2022-08-21T13:36:58.637Z</time>
      </trkpt>
      <trkpt lat="45.72362" lon="3.06673">
        <ele>590.212298</ele>
        <time>2022-08-21T13:37:03.265Z</time>
      </trkpt>
      <trkpt lat="45.72384" lon="3.06695">
        <ele>587.100916</ele>
        <time>2022-08-21T13:37:06.716Z</time>
      </trkpt>
      <trkpt lat="45.72388" lon="3.06708">
        <ele>585.92018</ele>
        <time>2022-08-21T13:37:07.989Z</time>
      </trkpt>
      <trkpt lat="45.72395" lon="3.06706">
        <ele>585.112016</ele>
        <time>2022-08-21T13:37:08.847Z</time>
      </trkpt>
      <trkpt lat="45.72401" lon="3.06713">
        <ele>584.145004</ele>
        <time>2022-08-21T13:37:09.875Z</time>
      </trkpt>
      <trkpt lat="45.72524" lon="3.06731">
        <ele>572.477708</ele>
        <time>2022-08-21T13:37:25.840Z</time>
      </trkpt>
      <trkpt lat="45.72561" lon="3.06738">
        <ele>569.235933</ele>
        <time>2022-08-21T13:37:30.739Z</time>
      </trkpt>
      <trkpt lat="45.72648" lon="3.06764">
        <ele>561.950714</ele>
        <time>2022-08-21T13:37:42.432Z</time>
      </trkpt>
      <trkpt lat="45.72688" lon="3.0674">
        <ele>558.676445</ele>
        <time>2022-08-21T13:37:51.931Z</time>
      </trkpt>
      <trkpt lat="45.72701" lon="3.06744">
        <ele>557.631255</ele>
        <time>2022-08-21T13:37:55.001Z</time>
      </trkpt>
      <trkpt lat="45.72768" lon="3.06731">
        <ele>552.43853</ele>
        <time>2022-08-21T13:38:10.212Z</time>
      </trkpt>
      <trkpt lat="45.72775" lon="3.06732">
        <ele>551.860593</ele>
        <time>2022-08-21T13:38:11.927Z</time>
      </trkpt>
      <trkpt lat="45.7279" lon="3.06734">
        <ele>550.787925</ele>
        <time>2022-08-21T13:38:15.184Z</time>
      </trkpt>
      <trkpt lat="45.72866" lon="3.06711">
        <ele>545.639476</ele>
        <time>2022-08-21T13:38:25.766Z</time>
      </trkpt>
      <trkpt lat="45.72914" lon="3.06755">
        <ele>541.915528</ele>
        <time>2022-08-21T13:38:33.393Z</time>
      </trkpt>
      <trkpt lat="45.7294" lon="3.06777">
        <ele>539.893532</ele>
        <time>2022-08-21T13:38:37.589Z</time>
      </trkpt>
      <trkpt lat="45.72967" lon="3.06789">
        <ele>538.816317</ele>
        <time>2022-08-21T13:38:41.395Z</time>
      </trkpt>
      <trkpt lat="45.73007" lon="3.06795">
        <ele>537.912506</ele>
        <time>2022-08-21T13:38:47.272Z</time>
      </trkpt>
      <trkpt lat="45.73035" lon="3.06838">
        <ele>537.028041</ele>
        <time>2022-08-21T13:38:53.570Z</time>
      </trkpt>
      <trkpt lat="45.7306" lon="3.06862">
        <ele>536.35401</ele>
        <time>2022-08-21T13:38:59.395Z</time>
      </trkpt>
      <trkpt lat="45.73097" lon="3.06876">
        <ele>535.508425</ele>
        <time>2022-08-21T13:39:09.071Z</time>
      </trkpt>
      <trkpt lat="45.73089" lon="3.06901">
        <ele>535.281028</ele>
        <time>2022-08-21T13:39:13.226Z</time>
      </trkpt>
      <trkpt lat="45.7308" lon="3.06972">
        <ele>535.730471</ele>
        <time>2022-08-21T13:39:25.064Z</time>
      </trkpt>
      <trkpt lat="45.73076" lon="3.07013">
        <ele>535.992009</ele>
        <time>2022-08-21T13:39:33.284Z</time>
      </trkpt>
      <trkpt lat="45.73068" lon="3.07033">
        <ele>536.134888</ele>
        <time>2022-08-21T13:39:37.730Z</time>
      </trkpt>
      <trkpt lat="45.73074" lon="3.07054">
        <ele>536.273035</ele>
        <time>2022-08-21T13:39:40.596Z</time>
      </trkpt>
      <trkpt lat="45.73087" lon="3.0706">
        <ele>536.401309</ele>
        <time>2022-08-21T13:39:45.066Z</time>
      </trkpt>
      <trkpt lat="45.73097" lon="3.07054">
        <ele>536.50069</ele>
        <time>2022-08-21T13:39:47.394Z</time>
      </trkpt>
      <trkpt lat="45.73102" lon="3.07044">
        <ele>536.573412</ele>
        <time>2022-08-21T13:39:48.888Z</time>
      </trkpt>
      <trkpt lat="45.73109" lon="3.07042">
        <ele>536.638405</ele>
        <time>2022-08-21T13:39:51.369Z</time>
      </trkpt>
      <trkpt lat="45.73113" lon="3.07063">
        <ele>536.768995</ele>
        <time>2022-08-21T13:39:57.550Z</time>
      </trkpt>
      <trkpt lat="45.73133" lon="3.07057">
        <ele>536.426028</ele>
        <time>2022-08-21T13:40:04.104Z</time>
      </trkpt>
      <trkpt lat="45.73158" lon="3.07072">
        <ele>535.639714</ele>
        <time>2022-08-21T13:40:12.248Z</time>
      </trkpt>
      <trkpt lat="45.7317" lon="3.07095">
        <ele>535.044968</ele>
        <time>2022-08-21T13:40:16.834Z</time>
      </trkpt>
      <trkpt lat="45.73186" lon="3.07104">
        <ele>534.538157</ele>
        <time>2022-08-21T13:40:21.101Z</time>
      </trkpt>
      <trkpt lat="45.73278" lon="3.071">
        <ele>531.844535</ele>
        <time>2022-08-21T13:40:43.736Z</time>
      </trkpt>
      <trkpt lat="45.73321" lon="3.07114">
        <ele>529.472732</ele>
        <time>2022-08-21T13:40:53.936Z</time>
      </trkpt>
      <trkpt lat="45.73388" lon="3.07118">
        <ele>525.354305</ele>
        <time>2022-08-21T13:41:09.571Z</time>
      </trkpt>
      <trkpt lat="45.73379" lon="3.07057">
        <ele>522.679542</ele>
        <time>2022-08-21T13:41:19.630Z</time>
      </trkpt>
      <trkpt lat="45.73387" lon="3.07044">
        <ele>521.916652</ele>
        <time>2022-08-21T13:41:22.564Z</time>
      </trkpt>
      <trkpt lat="45.73399" lon="3.07061">
        <ele>520.865783</ele>
        <time>2022-08-21T13:41:26.459Z</time>
      </trkpt>
      <trkpt lat="45.73407" lon="3.07053">
        <ele>520.322617</ele>
        <time>2022-08-21T13:41:28.584Z</time>
      </trkpt>
      <trkpt lat="45.73409" lon="3.07031">
        <ele>519.489691</ele>
        <time>2022-08-21T13:41:32.222Z</time>
      </trkpt>
      <trkpt lat="45.73418" lon="3.07039">
        <ele>518.93325</ele>
        <time>2022-08-21T13:41:34.644Z</time>
      </trkpt>
      <trkpt lat="45.73419" lon="3.07039">
        <ele>518.8739</ele>
        <time>2022-08-21T13:41:36.056Z</time>
      </trkpt>
      <trkpt lat="45.73422" lon="3.07038">
        <ele>518.760263</ele>
        <time>2022-08-21T13:41:36.558Z</time>
      </trkpt>
      <trkpt lat="45.7343" lon="3.07022">
        <ele>518.022809</ele>
        <time>2022-08-21T13:41:39.861Z</time>
      </trkpt>
      <trkpt lat="45.73461" lon="3.07012">
        <ele>516.351644</ele>
        <time>2022-08-21T13:41:47.269Z</time>
      </trkpt>
      <trkpt lat="45.73502" lon="3.07026">
        <ele>514.177922</ele>
        <time>2022-08-21T13:41:57.315Z</time>
      </trkpt>
      <trkpt lat="45.7352" lon="3.07018">
        <ele>513.206215</ele>
        <time>2022-08-21T13:42:01.835Z</time>
      </trkpt>
      <trkpt lat="45.73543" lon="3.07026">
        <ele>511.947939</ele>
        <time>2022-08-21T13:42:07.828Z</time>
      </trkpt>
      <trkpt lat="45.73558" lon="3.07047">
        <ele>510.915365</ele>
        <time>2022-08-21T13:42:13.247Z</time>
      </trkpt>
      <trkpt lat="45.73584" lon="3.07063">
        <ele>509.857456</ele>
        <time>2022-08-21T13:42:20.401Z</time>
      </trkpt>
      <trkpt lat="45.73614" lon="3.07065">
        <ele>508.679179</ele>
        <time>2022-08-21T13:42:28.442Z</time>
      </trkpt>
      <trkpt lat="45.73635" lon="3.07085">
        <ele>507.717063</ele>
        <time>2022-08-21T13:42:35.085Z</time>
      </trkpt>
      <trkpt lat="45.73693" lon="3.07121">
        <ele>505.282199</ele>
        <time>2022-08-21T13:42:50.546Z</time>
      </trkpt>
      <trkpt lat="45.73729" lon="3.07157">
        <ele>503.561324</ele>
        <time>2022-08-21T13:43:01.341Z</time>
      </trkpt>
      <trkpt lat="45.73769" lon="3.07166">
        <ele>501.91795</ele>
        <time>2022-08-21T13:43:11.338Z</time>
      </trkpt>
      <trkpt lat="45.73785" lon="3.07157">
        <ele>501.188526</ele>
        <time>2022-08-21T13:43:15.496Z</time>
      </trkpt>
      <trkpt lat="45.73799" lon="3.07171">
        <ele>500.500051</ele>
        <time>2022-08-21T13:43:20.422Z</time>
      </trkpt>
      <trkpt lat="45.73806" lon="3.07168">
        <ele>500.171056</ele>
        <time>2022-08-21T13:43:22.357Z</time>
      </trkpt>
      <trkpt lat="45.73845" lon="3.07174">
        <ele>498.553595</ele>
        <time>2022-08-21T13:43:32.133Z</time>
      </trkpt>
      <trkpt lat="45.73861" lon="3.07164">
        <ele>497.851962</ele>
        <time>2022-08-21T13:43:36.265Z</time>
      </trkpt>
      <trkpt lat="45.73893" lon="3.07119">
        <ele>495.989902</ele>
        <time>2022-08-21T13:43:42.739Z</time>
      </trkpt>
      <trkpt lat="45.73942" lon="3.0709">
        <ele>493.733975</ele>
        <time>2022-08-21T13:43:50.430Z</time>
      </trkpt>
      <trkpt lat="45.73965" lon="3.07086">
        <ele>492.722211</ele>
        <time>2022-08-21T13:43:56.458Z</time>
      </trkpt>
      <trkpt lat="45.74016" lon="3.07095">
        <ele>490.578128</ele>
        <time>2022-08-21T13:44:09.484Z</time>
      </trkpt>
      <trkpt lat="45.74102" lon="3.0714">
        <ele>485.605053</ele>
        <time>2022-08-21T13:44:31.341Z</time>
      </trkpt>
      <trkpt lat="45.74151" lon="3.07172">
        <ele>482.31869</ele>
        <time>2022-08-21T13:44:43.891Z</time>
      </trkpt>
      <trkpt lat="45.7421" lon="3.07186">
        <ele>478.656664</ele>
        <time>2022-08-21T13:44:57.786Z</time>
      </trkpt>
      <trkpt lat="45.74256" lon="3.0722">
        <ele>475.005583</ele>
        <time>2022-08-21T13:45:09.387Z</time>
      </trkpt>
      <trkpt lat="45.74285" lon="3.07257">
        <ele>472.210738</ele>
        <time>2022-08-21T13:45:18.155Z</time>
      </trkpt>
      <trkpt lat="45.74302" lon="3.07285">
        <ele>470.391181</ele>
        <time>2022-08-21T13:45:23.927Z</time>
      </trkpt>
      <trkpt lat="45.74314" lon="3.07326">
        <ele>468.143948</ele>
        <time>2022-08-21T13:45:30.931Z</time>
      </trkpt>
      <trkpt lat="45.74313" lon="3.0733">
        <ele>467.927965</ele>
        <time>2022-08-21T13:45:31.322Z</time>
      </trkpt>
      <trkpt lat="45.74335" lon="3.07375">
        <ele>465.178769</ele>
        <time>2022-08-21T13:45:36.142Z</time>
      </trkpt>
      <trkpt lat="45.7438" lon="3.07444">
        <ele>461.419513</ele>
        <time>2022-08-21T13:45:44.568Z</time>
      </trkpt>
      <trkpt lat="45.74404" lon="3.07489">
        <ele>459.198215</ele>
        <time>2022-08-21T13:45:49.578Z</time>
      </trkpt>
      <trkpt lat="45.7443" lon="3.07541">
        <ele>456.656371</ele>
        <time>2022-08-21T13:45:55.649Z</time>
      </trkpt>
      <trkpt lat="45.74439" lon="3.07543">
        <ele>456.142019</ele>
        <time>2022-08-21T13:45:56.871Z</time>
      </trkpt>
      <trkpt lat="45.74501" lon="3.07561">
        <ele>453.404297</ele>
        <time>2022-08-21T13:46:05.823Z</time>
      </trkpt>
      <trkpt lat="45.74511" lon="3.0757">
        <ele>452.949994</ele>
        <time>2022-08-21T13:46:07.412Z</time>
      </trkpt>
      <trkpt lat="45.7451" lon="3.07693">
        <ele>449.715746</ele>
        <time>2022-08-21T13:46:29.087Z</time>
      </trkpt>
      <trkpt lat="45.74517" lon="3.07734">
        <ele>448.613601</ele>
        <time>2022-08-21T13:46:36.645Z</time>
      </trkpt>
      <trkpt lat="45.74517" lon="3.07769">
        <ele>447.718943</ele>
        <time>2022-08-21T13:46:42.974Z</time>
      </trkpt>
      <trkpt lat="45.74521" lon="3.07769">
        <ele>447.596767</ele>
        <time>2022-08-21T13:46:43.728Z</time>
      </trkpt>
      <trkpt lat="45.74527" lon="3.07769">
        <ele>447.388379</ele>
        <time>2022-08-21T13:46:45.224Z</time>
      </trkpt>
      <trkpt lat="45.74529" lon="3.07769">
        <ele>447.287753</ele>
        <time>2022-08-21T13:46:45.943Z</time>
      </trkpt>
      <trkpt lat="45.74529" lon="3.07811">
        <ele>446.234607</ele>
        <time>2022-08-21T13:46:53.301Z</time>
      </trkpt>
      <trkpt lat="45.74537" lon="3.07905">
        <ele>443.869964</ele>
        <time>2022-08-21T13:47:10.128Z</time>
      </trkpt>
      <trkpt lat="45.74543" lon="3.07913">
        <ele>443.569478</ele>
        <time>2022-08-21T13:47:12.122Z</time>
      </trkpt>
      <trkpt lat="45.74553" lon="3.07914">
        <ele>443.206482</ele>
        <time>2022-08-21T13:47:14.756Z</time>
      </trkpt>
      <trkpt lat="45.74585" lon="3.07906">
        <ele>442.035262</ele>
        <time>2022-08-21T13:47:22.913Z</time>
      </trkpt>
      <trkpt lat="45.74604" lon="3.08076">
        <ele>438.333752</ele>
        <time>2022-08-21T13:47:53.694Z</time>
      </trkpt>
      <trkpt lat="45.74608" lon="3.0816">
        <ele>436.528864</ele>
        <time>2022-08-21T13:48:09.287Z</time>
      </trkpt>
      <trkpt lat="45.74621" lon="3.08192">
        <ele>436.049682</ele>
        <time>2022-08-21T13:48:16.185Z</time>
      </trkpt>
      <trkpt lat="45.74636" lon="3.08189">
        <ele>435.843527</ele>
        <time>2022-08-21T13:48:18.480Z</time>
      </trkpt>
      <trkpt lat="45.7465" lon="3.08185">
        <ele>435.636382</ele>
        <time>2022-08-21T13:48:20.700Z</time>
      </trkpt>
      <trkpt lat="45.74723" lon="3.08168">
        <ele>434.622051</ele>
        <time>2022-08-21T13:48:32.416Z</time>
      </trkpt>
      <trkpt lat="45.74726" lon="3.08173">
        <ele>434.562739</ele>
        <time>2022-08-21T13:48:33.125Z</time>
      </trkpt>
      <trkpt lat="45.7473" lon="3.08172">
        <ele>434.507515</ele>
        <time>2022-08-21T13:48:33.865Z</time>
      </trkpt>
      <trkpt lat="45.74732" lon="3.08169">
        <ele>434.468809</ele>
        <time>2022-08-21T13:48:34.399Z</time>
      </trkpt>
      <trkpt lat="45.7477" lon="3.0821">
        <ele>433.854166</ele>
        <time>2022-08-21T13:48:43.096Z</time>
      </trkpt>
      <trkpt lat="45.74775" lon="3.08218">
        <ele>433.968817</ele>
        <time>2022-08-21T13:48:44.869Z</time>
      </trkpt>
      <trkpt lat="45.74782" lon="3.08228">
        <ele>434.097715</ele>
        <time>2022-08-21T13:48:46.761Z</time>
      </trkpt>
      <trkpt lat="45.74788" lon="3.08236">
        <ele>434.215953</ele>
        <time>2022-08-21T13:48:48.658Z</time>
      </trkpt>
      <trkpt lat="45.74798" lon="3.08231">
        <ele>434.367603</ele>
        <time>2022-08-21T13:48:51.211Z</time>
      </trkpt>
      <trkpt lat="45.74836" lon="3.08226">
        <ele>434.895192</ele>
        <time>2022-08-21T13:49:00.298Z</time>
      </trkpt>
      <trkpt lat="45.74868" lon="3.08258">
        <ele>435.436826</ele>
        <time>2022-08-21T13:49:10.920Z</time>
      </trkpt>
      <trkpt lat="45.74911" lon="3.0827">
        <ele>436.043295</ele>
        <time>2022-08-21T13:49:25.312Z</time>
      </trkpt>
      <trkpt lat="45.74977" lon="3.08369">
        <ele>436.32838</ele>
        <time>2022-08-21T13:49:56.509Z</time>
      </trkpt>
      <trkpt lat="45.74986" lon="3.08382">
        <ele>436.32838</ele>
        <time>2022-08-21T13:50:00.168Z</time>
      </trkpt>
      <trkpt lat="45.74997" lon="3.08383">
        <ele>436.32838</ele>
        <time>2022-08-21T13:50:04.028Z</time>
      </trkpt>
      <trkpt lat="45.75001" lon="3.08384">
        <ele>436.32838</ele>
        <time>2022-08-21T13:50:05.138Z</time>
      </trkpt>
      <trkpt lat="45.75011" lon="3.08416">
        <ele>436.32838</ele>
        <time>2022-08-21T13:50:12.064Z</time>
      </trkpt>
      <trkpt lat="45.75015" lon="3.08418">
        <ele>436.32838</ele>
        <time>2022-08-21T13:50:13.466Z</time>
      </trkpt>
      <trkpt lat="45.75005" lon="3.08437">
        <ele>436.32838</ele>
        <time>2022-08-21T13:50:17.702Z</time>
      </trkpt>
      <trkpt lat="45.75006" lon="3.08458">
        <ele>436.32838</ele>
        <time>2022-08-21T13:50:22.126Z</time>
      </trkpt>
      <trkpt lat="45.75006" lon="3.08464">
        <ele>436.32838</ele>
        <time>2022-08-21T13:50:23.434Z</time>
      </trkpt>
      <trkpt lat="45.75007" lon="3.08476">
        <ele>436.32838</ele>
        <time>2022-08-21T13:50:25.640Z</time>
      </trkpt>
      <trkpt lat="45.75009" lon="3.0849">
        <ele>436.32838</ele>
        <time>2022-08-21T13:50:27.872Z</time>
      </trkpt>
      <trkpt lat="45.75009" lon="3.08494">
        <ele>436.32838</ele>
        <time>2022-08-21T13:50:28.508Z</time>
      </trkpt>
      <trkpt lat="45.75012" lon="3.08517">
        <ele>436.32838</ele>
        <time>2022-08-21T13:50:33.345Z</time>
      </trkpt>
      <trkpt lat="45.75016" lon="3.08549">
        <ele>436.32838</ele>
        <time>2022-08-21T13:50:38.304Z</time>
      </trkpt>
      <trkpt lat="45.75023" lon="3.08555">
        <ele>436.32838</ele>
        <time>2022-08-21T13:50:41.060Z</time>
      </trkpt>
      <trkpt lat="45.75023" lon="3.08556">
        <ele>436.32838</ele>
        <time>2022-08-21T13:50:41.081Z</time>
      </trkpt>
    </trkseg>
  </trk>
</gpx>